<?xml version="1.0" encoding="UTF-8" standalone="no" ?>
<gpx xmlns="http://www.topografix.com/GPX/1/1" xmlns:xsi="http://www.w3.org/2001/XMLSchema-instance" xsi:schemaLocation="http://www.topografix.com/GPX/1/1 http://www.topografix.com/GPX/1/1/gpx.xsd" version="1.1" creator="VisuGPX - https://www.visugpx.com">
  <metadata>
    <name>Gorges de la Vis - Cirque de Navacelle</name>
    <desc><![CDATA[Rando au  bord de la Vis
Départ de Navacelle jusqu\'au Moulin de la Foux
]]></desc>
  </metadata>
  <trk>
    <name><![CDATA[2 oct. 2011 13:05:34]]></name>
    <cmt><![CDATA[2 oct. 2011 13:05:34]]></cmt>
    <trkseg>
      <trkpt lat="43.89405" lon="3.51091">
        <ele>358</ele>
        <time>2011-10-02T11:05:35Z</time>
      </trkpt>
      <trkpt lat="43.89427" lon="3.51133">
        <ele>357</ele>
        <time>2011-10-02T11:06:08Z</time>
      </trkpt>
      <trkpt lat="43.89438" lon="3.51147">
        <ele>356</ele>
        <time>2011-10-02T11:06:26Z</time>
      </trkpt>
      <trkpt lat="43.89447" lon="3.51151">
        <ele>356</ele>
        <time>2011-10-02T11:06:40Z</time>
      </trkpt>
      <trkpt lat="43.89449" lon="3.51162">
        <ele>356</ele>
        <time>2011-10-02T11:06:50Z</time>
      </trkpt>
      <trkpt lat="43.89449" lon="3.51169">
        <ele>356</ele>
        <time>2011-10-02T11:06:58Z</time>
      </trkpt>
      <trkpt lat="43.89456" lon="3.51171">
        <ele>354</ele>
        <time>2011-10-02T11:07:58Z</time>
      </trkpt>
      <trkpt lat="43.89461" lon="3.5117">
        <ele>355</ele>
        <time>2011-10-02T11:08:21Z</time>
      </trkpt>
      <trkpt lat="43.89459" lon="3.51164">
        <ele>355</ele>
        <time>2011-10-02T11:08:58Z</time>
      </trkpt>
      <trkpt lat="43.89454" lon="3.51167">
        <ele>355</ele>
        <time>2011-10-02T11:09:05Z</time>
      </trkpt>
      <trkpt lat="43.8945" lon="3.5117">
        <ele>355</ele>
        <time>2011-10-02T11:09:10Z</time>
      </trkpt>
      <trkpt lat="43.89432" lon="3.51204">
        <ele>356</ele>
        <time>2011-10-02T11:09:43Z</time>
      </trkpt>
      <trkpt lat="43.89431" lon="3.51209">
        <ele>356</ele>
        <time>2011-10-02T11:09:51Z</time>
      </trkpt>
      <trkpt lat="43.89433" lon="3.51225">
        <ele>356</ele>
        <time>2011-10-02T11:10:15Z</time>
      </trkpt>
      <trkpt lat="43.89436" lon="3.51235">
        <ele>356</ele>
        <time>2011-10-02T11:10:25Z</time>
      </trkpt>
      <trkpt lat="43.8944" lon="3.51241">
        <ele>356</ele>
        <time>2011-10-02T11:10:40Z</time>
      </trkpt>
      <trkpt lat="43.89434" lon="3.5125">
        <ele>355</ele>
        <time>2011-10-02T11:10:52Z</time>
      </trkpt>
      <trkpt lat="43.89431" lon="3.51263">
        <ele>355</ele>
        <time>2011-10-02T11:11:04Z</time>
      </trkpt>
      <trkpt lat="43.89434" lon="3.51261">
        <ele>354</ele>
        <time>2011-10-02T11:12:06Z</time>
      </trkpt>
      <trkpt lat="43.89438" lon="3.51261">
        <ele>356</ele>
        <time>2011-10-02T11:14:19Z</time>
      </trkpt>
      <trkpt lat="43.89431" lon="3.51258">
        <ele>356</ele>
        <time>2011-10-02T11:15:40Z</time>
      </trkpt>
      <trkpt lat="43.89431" lon="3.51258">
        <ele>355</ele>
        <time>2011-10-02T11:15:50Z</time>
      </trkpt>
      <trkpt lat="43.89435" lon="3.51242">
        <ele>312</ele>
        <time>2011-10-02T12:01:24Z</time>
      </trkpt>
      <trkpt lat="43.89428" lon="3.51211">
        <ele>312</ele>
        <time>2011-10-02T12:01:45Z</time>
      </trkpt>
      <trkpt lat="43.89434" lon="3.51199">
        <ele>312</ele>
        <time>2011-10-02T12:02:03Z</time>
      </trkpt>
      <trkpt lat="43.89443" lon="3.51196">
        <ele>311</ele>
        <time>2011-10-02T12:02:15Z</time>
      </trkpt>
      <trkpt lat="43.89448" lon="3.51185">
        <ele>310</ele>
        <time>2011-10-02T12:02:25Z</time>
      </trkpt>
      <trkpt lat="43.89452" lon="3.51174">
        <ele>309</ele>
        <time>2011-10-02T12:02:35Z</time>
      </trkpt>
      <trkpt lat="43.89452" lon="3.51154">
        <ele>308</ele>
        <time>2011-10-02T12:03:23Z</time>
      </trkpt>
      <trkpt lat="43.89453" lon="3.51152">
        <ele>308</ele>
        <time>2011-10-02T12:03:54Z</time>
      </trkpt>
      <trkpt lat="43.89461" lon="3.51154">
        <ele>309</ele>
        <time>2011-10-02T12:04:30Z</time>
      </trkpt>
      <trkpt lat="43.89461" lon="3.51147">
        <ele>309</ele>
        <time>2011-10-02T12:04:49Z</time>
      </trkpt>
      <trkpt lat="43.89465" lon="3.51141">
        <ele>309</ele>
        <time>2011-10-02T12:04:57Z</time>
      </trkpt>
      <trkpt lat="43.89474" lon="3.51136">
        <ele>309</ele>
        <time>2011-10-02T12:05:09Z</time>
      </trkpt>
      <trkpt lat="43.89487" lon="3.51136">
        <ele>308</ele>
        <time>2011-10-02T12:05:54Z</time>
      </trkpt>
      <trkpt lat="43.89489" lon="3.51132">
        <ele>308</ele>
        <time>2011-10-02T12:06:29Z</time>
      </trkpt>
      <trkpt lat="43.89499" lon="3.51115">
        <ele>307</ele>
        <time>2011-10-02T12:06:46Z</time>
      </trkpt>
      <trkpt lat="43.89502" lon="3.51095">
        <ele>307</ele>
        <time>2011-10-02T12:07:00Z</time>
      </trkpt>
      <trkpt lat="43.89515" lon="3.51064">
        <ele>308</ele>
        <time>2011-10-02T12:07:22Z</time>
      </trkpt>
      <trkpt lat="43.89523" lon="3.51048">
        <ele>311</ele>
        <time>2011-10-02T12:07:40Z</time>
      </trkpt>
      <trkpt lat="43.89524" lon="3.51031">
        <ele>313</ele>
        <time>2011-10-02T12:08:28Z</time>
      </trkpt>
      <trkpt lat="43.89516" lon="3.51007">
        <ele>316</ele>
        <time>2011-10-02T12:09:01Z</time>
      </trkpt>
      <trkpt lat="43.89515" lon="3.50997">
        <ele>317</ele>
        <time>2011-10-02T12:09:15Z</time>
      </trkpt>
      <trkpt lat="43.89519" lon="3.50984">
        <ele>316</ele>
        <time>2011-10-02T12:09:33Z</time>
      </trkpt>
      <trkpt lat="43.89518" lon="3.50977">
        <ele>316</ele>
        <time>2011-10-02T12:09:39Z</time>
      </trkpt>
      <trkpt lat="43.89519" lon="3.50962">
        <ele>317</ele>
        <time>2011-10-02T12:09:49Z</time>
      </trkpt>
      <trkpt lat="43.89521" lon="3.50957">
        <ele>318</ele>
        <time>2011-10-02T12:09:59Z</time>
      </trkpt>
      <trkpt lat="43.89521" lon="3.50943">
        <ele>318</ele>
        <time>2011-10-02T12:10:11Z</time>
      </trkpt>
      <trkpt lat="43.89525" lon="3.50936">
        <ele>321</ele>
        <time>2011-10-02T12:10:22Z</time>
      </trkpt>
      <trkpt lat="43.89526" lon="3.50927">
        <ele>323</ele>
        <time>2011-10-02T12:10:30Z</time>
      </trkpt>
      <trkpt lat="43.89531" lon="3.50916">
        <ele>325</ele>
        <time>2011-10-02T12:10:43Z</time>
      </trkpt>
      <trkpt lat="43.89526" lon="3.50904">
        <ele>325</ele>
        <time>2011-10-02T12:10:57Z</time>
      </trkpt>
      <trkpt lat="43.89518" lon="3.50896">
        <ele>325</ele>
        <time>2011-10-02T12:11:05Z</time>
      </trkpt>
      <trkpt lat="43.89511" lon="3.50866">
        <ele>325</ele>
        <time>2011-10-02T12:11:24Z</time>
      </trkpt>
      <trkpt lat="43.89512" lon="3.50852">
        <ele>325</ele>
        <time>2011-10-02T12:11:34Z</time>
      </trkpt>
      <trkpt lat="43.89518" lon="3.50834">
        <ele>324</ele>
        <time>2011-10-02T12:11:53Z</time>
      </trkpt>
      <trkpt lat="43.89526" lon="3.50786">
        <ele>324</ele>
        <time>2011-10-02T12:12:29Z</time>
      </trkpt>
      <trkpt lat="43.89543" lon="3.5076">
        <ele>324</ele>
        <time>2011-10-02T12:12:56Z</time>
      </trkpt>
      <trkpt lat="43.89551" lon="3.50754">
        <ele>324</ele>
        <time>2011-10-02T12:13:06Z</time>
      </trkpt>
      <trkpt lat="43.89574" lon="3.50755">
        <ele>326</ele>
        <time>2011-10-02T12:13:26Z</time>
      </trkpt>
      <trkpt lat="43.89583" lon="3.50745">
        <ele>326</ele>
        <time>2011-10-02T12:13:36Z</time>
      </trkpt>
      <trkpt lat="43.89581" lon="3.50731">
        <ele>327</ele>
        <time>2011-10-02T12:13:46Z</time>
      </trkpt>
      <trkpt lat="43.89579" lon="3.5072">
        <ele>327</ele>
        <time>2011-10-02T12:13:55Z</time>
      </trkpt>
      <trkpt lat="43.89581" lon="3.50714">
        <ele>327</ele>
        <time>2011-10-02T12:14:00Z</time>
      </trkpt>
      <trkpt lat="43.89605" lon="3.50686">
        <ele>328</ele>
        <time>2011-10-02T12:14:31Z</time>
      </trkpt>
      <trkpt lat="43.8963" lon="3.50649">
        <ele>329</ele>
        <time>2011-10-02T12:15:03Z</time>
      </trkpt>
      <trkpt lat="43.89655" lon="3.50621">
        <ele>328</ele>
        <time>2011-10-02T12:15:37Z</time>
      </trkpt>
      <trkpt lat="43.89669" lon="3.50598">
        <ele>328</ele>
        <time>2011-10-02T12:15:56Z</time>
      </trkpt>
      <trkpt lat="43.89671" lon="3.5059">
        <ele>329</ele>
        <time>2011-10-02T12:16:18Z</time>
      </trkpt>
      <trkpt lat="43.89675" lon="3.50588">
        <ele>329</ele>
        <time>2011-10-02T12:16:18Z</time>
      </trkpt>
      <trkpt lat="43.89686" lon="3.50584">
        <ele>331</ele>
        <time>2011-10-02T12:16:26Z</time>
      </trkpt>
      <trkpt lat="43.897" lon="3.50567">
        <ele>333</ele>
        <time>2011-10-02T12:16:46Z</time>
      </trkpt>
      <trkpt lat="43.8971" lon="3.5056">
        <ele>333</ele>
        <time>2011-10-02T12:16:55Z</time>
      </trkpt>
      <trkpt lat="43.89715" lon="3.50549">
        <ele>334</ele>
        <time>2011-10-02T12:17:04Z</time>
      </trkpt>
      <trkpt lat="43.89721" lon="3.50503">
        <ele>334</ele>
        <time>2011-10-02T12:17:35Z</time>
      </trkpt>
      <trkpt lat="43.89726" lon="3.50447">
        <ele>335</ele>
        <time>2011-10-02T12:18:11Z</time>
      </trkpt>
      <trkpt lat="43.89732" lon="3.50392">
        <ele>335</ele>
        <time>2011-10-02T12:18:45Z</time>
      </trkpt>
      <trkpt lat="43.89733" lon="3.50363">
        <ele>335</ele>
        <time>2011-10-02T12:19:00Z</time>
      </trkpt>
      <trkpt lat="43.89731" lon="3.50357">
        <ele>335</ele>
        <time>2011-10-02T12:19:11Z</time>
      </trkpt>
      <trkpt lat="43.89726" lon="3.50354">
        <ele>335</ele>
        <time>2011-10-02T12:19:16Z</time>
      </trkpt>
      <trkpt lat="43.89722" lon="3.50349">
        <ele>335</ele>
        <time>2011-10-02T12:19:29Z</time>
      </trkpt>
      <trkpt lat="43.89721" lon="3.50342">
        <ele>335</ele>
        <time>2011-10-02T12:19:34Z</time>
      </trkpt>
      <trkpt lat="43.89722" lon="3.50331">
        <ele>335</ele>
        <time>2011-10-02T12:20:01Z</time>
      </trkpt>
      <trkpt lat="43.89708" lon="3.50289">
        <ele>334</ele>
        <time>2011-10-02T12:20:29Z</time>
      </trkpt>
      <trkpt lat="43.89702" lon="3.50289">
        <ele>334</ele>
        <time>2011-10-02T12:20:35Z</time>
      </trkpt>
      <trkpt lat="43.89698" lon="3.50294">
        <ele>334</ele>
        <time>2011-10-02T12:20:43Z</time>
      </trkpt>
      <trkpt lat="43.89665" lon="3.50316">
        <ele>333</ele>
        <time>2011-10-02T12:21:16Z</time>
      </trkpt>
      <trkpt lat="43.89664" lon="3.50325">
        <ele>332</ele>
        <time>2011-10-02T12:21:24Z</time>
      </trkpt>
      <trkpt lat="43.89661" lon="3.5033">
        <ele>332</ele>
        <time>2011-10-02T12:21:29Z</time>
      </trkpt>
      <trkpt lat="43.89648" lon="3.50336">
        <ele>332</ele>
        <time>2011-10-02T12:21:47Z</time>
      </trkpt>
      <trkpt lat="43.89644" lon="3.50341">
        <ele>332</ele>
        <time>2011-10-02T12:21:52Z</time>
      </trkpt>
      <trkpt lat="43.89639" lon="3.50353">
        <ele>332</ele>
        <time>2011-10-02T12:22:03Z</time>
      </trkpt>
      <trkpt lat="43.89622" lon="3.50388">
        <ele>332</ele>
        <time>2011-10-02T12:22:40Z</time>
      </trkpt>
      <trkpt lat="43.89617" lon="3.50393">
        <ele>332</ele>
        <time>2011-10-02T12:22:45Z</time>
      </trkpt>
      <trkpt lat="43.89597" lon="3.50398">
        <ele>333</ele>
        <time>2011-10-02T12:23:18Z</time>
      </trkpt>
      <trkpt lat="43.89595" lon="3.504">
        <ele>332</ele>
        <time>2011-10-02T12:23:59Z</time>
      </trkpt>
      <trkpt lat="43.89565" lon="3.50383">
        <ele>332</ele>
        <time>2011-10-02T12:24:32Z</time>
      </trkpt>
      <trkpt lat="43.89554" lon="3.50373">
        <ele>332</ele>
        <time>2011-10-02T12:24:52Z</time>
      </trkpt>
      <trkpt lat="43.89547" lon="3.50362">
        <ele>332</ele>
        <time>2011-10-02T12:25:17Z</time>
      </trkpt>
      <trkpt lat="43.8952" lon="3.50342">
        <ele>331</ele>
        <time>2011-10-02T12:25:49Z</time>
      </trkpt>
      <trkpt lat="43.89492" lon="3.50302">
        <ele>330</ele>
        <time>2011-10-02T12:26:21Z</time>
      </trkpt>
      <trkpt lat="43.89464" lon="3.5027">
        <ele>330</ele>
        <time>2011-10-02T12:26:57Z</time>
      </trkpt>
      <trkpt lat="43.8944" lon="3.50248">
        <ele>330</ele>
        <time>2011-10-02T12:27:29Z</time>
      </trkpt>
      <trkpt lat="43.89413" lon="3.5021">
        <ele>330</ele>
        <time>2011-10-02T12:28:06Z</time>
      </trkpt>
      <trkpt lat="43.89377" lon="3.50196">
        <ele>329</ele>
        <time>2011-10-02T12:28:39Z</time>
      </trkpt>
      <trkpt lat="43.8936" lon="3.50205">
        <ele>330</ele>
        <time>2011-10-02T12:28:57Z</time>
      </trkpt>
      <trkpt lat="43.89357" lon="3.50214">
        <ele>330</ele>
        <time>2011-10-02T12:29:05Z</time>
      </trkpt>
      <trkpt lat="43.89348" lon="3.50239">
        <ele>331</ele>
        <time>2011-10-02T12:29:24Z</time>
      </trkpt>
      <trkpt lat="43.89328" lon="3.5025">
        <ele>331</ele>
        <time>2011-10-02T12:29:46Z</time>
      </trkpt>
      <trkpt lat="43.89316" lon="3.50272">
        <ele>331</ele>
        <time>2011-10-02T12:30:15Z</time>
      </trkpt>
      <trkpt lat="43.89313" lon="3.50273">
        <ele>333</ele>
        <time>2011-10-02T12:33:27Z</time>
      </trkpt>
      <trkpt lat="43.89311" lon="3.50268">
        <ele>334</ele>
        <time>2011-10-02T12:33:46Z</time>
      </trkpt>
      <trkpt lat="43.89307" lon="3.50266">
        <ele>336</ele>
        <time>2011-10-02T12:34:49Z</time>
      </trkpt>
      <trkpt lat="43.89318" lon="3.50267">
        <ele>337</ele>
        <time>2011-10-02T12:35:24Z</time>
      </trkpt>
      <trkpt lat="43.89323" lon="3.50264">
        <ele>337</ele>
        <time>2011-10-02T12:35:31Z</time>
      </trkpt>
      <trkpt lat="43.89327" lon="3.50251">
        <ele>337</ele>
        <time>2011-10-02T12:35:50Z</time>
      </trkpt>
      <trkpt lat="43.89336" lon="3.50246">
        <ele>337</ele>
        <time>2011-10-02T12:35:58Z</time>
      </trkpt>
      <trkpt lat="43.89352" lon="3.50243">
        <ele>336</ele>
        <time>2011-10-02T12:36:30Z</time>
      </trkpt>
      <trkpt lat="43.89394" lon="3.50249">
        <ele>334</ele>
        <time>2011-10-02T12:37:15Z</time>
      </trkpt>
      <trkpt lat="43.89417" lon="3.50271">
        <ele>333</ele>
        <time>2011-10-02T12:37:54Z</time>
      </trkpt>
      <trkpt lat="43.89425" lon="3.50277">
        <ele>333</ele>
        <time>2011-10-02T12:38:03Z</time>
      </trkpt>
      <trkpt lat="43.89447" lon="3.50302">
        <ele>336</ele>
        <time>2011-10-02T12:38:35Z</time>
      </trkpt>
      <trkpt lat="43.89476" lon="3.50327">
        <ele>338</ele>
        <time>2011-10-02T12:39:13Z</time>
      </trkpt>
      <trkpt lat="43.89493" lon="3.50357">
        <ele>339</ele>
        <time>2011-10-02T12:39:47Z</time>
      </trkpt>
      <trkpt lat="43.8951" lon="3.50405">
        <ele>341</ele>
        <time>2011-10-02T12:40:25Z</time>
      </trkpt>
      <trkpt lat="43.89525" lon="3.50449">
        <ele>345</ele>
        <time>2011-10-02T12:40:58Z</time>
      </trkpt>
      <trkpt lat="43.8954" lon="3.50492">
        <ele>349</ele>
        <time>2011-10-02T12:41:34Z</time>
      </trkpt>
      <trkpt lat="43.89552" lon="3.50526">
        <ele>353</ele>
        <time>2011-10-02T12:41:59Z</time>
      </trkpt>
      <trkpt lat="43.89548" lon="3.50525">
        <ele>355</ele>
        <time>2011-10-02T12:42:12Z</time>
      </trkpt>
      <trkpt lat="43.89539" lon="3.50511">
        <ele>358</ele>
        <time>2011-10-02T12:42:47Z</time>
      </trkpt>
      <trkpt lat="43.89525" lon="3.5047">
        <ele>362</ele>
        <time>2011-10-02T12:43:18Z</time>
      </trkpt>
      <trkpt lat="43.89508" lon="3.50423">
        <ele>367</ele>
        <time>2011-10-02T12:43:52Z</time>
      </trkpt>
      <trkpt lat="43.89493" lon="3.5038">
        <ele>368</ele>
        <time>2011-10-02T12:44:23Z</time>
      </trkpt>
      <trkpt lat="43.89474" lon="3.50356">
        <ele>369</ele>
        <time>2011-10-02T12:44:48Z</time>
      </trkpt>
      <trkpt lat="43.89469" lon="3.50355">
        <ele>369</ele>
        <time>2011-10-02T12:44:53Z</time>
      </trkpt>
      <trkpt lat="43.89429" lon="3.50313">
        <ele>369</ele>
        <time>2011-10-02T12:45:29Z</time>
      </trkpt>
      <trkpt lat="43.89397" lon="3.50292">
        <ele>368</ele>
        <time>2011-10-02T12:45:59Z</time>
      </trkpt>
      <trkpt lat="43.89365" lon="3.50287">
        <ele>367</ele>
        <time>2011-10-02T12:46:31Z</time>
      </trkpt>
      <trkpt lat="43.89337" lon="3.50306">
        <ele>365</ele>
        <time>2011-10-02T12:47:00Z</time>
      </trkpt>
      <trkpt lat="43.89335" lon="3.50314">
        <ele>364</ele>
        <time>2011-10-02T12:47:28Z</time>
      </trkpt>
      <trkpt lat="43.89317" lon="3.50343">
        <ele>360</ele>
        <time>2011-10-02T12:47:54Z</time>
      </trkpt>
      <trkpt lat="43.89309" lon="3.50349">
        <ele>360</ele>
        <time>2011-10-02T12:48:09Z</time>
      </trkpt>
      <trkpt lat="43.89287" lon="3.50381">
        <ele>361</ele>
        <time>2011-10-02T12:48:39Z</time>
      </trkpt>
      <trkpt lat="43.89284" lon="3.50386">
        <ele>362</ele>
        <time>2011-10-02T12:48:44Z</time>
      </trkpt>
      <trkpt lat="43.89279" lon="3.50388">
        <ele>362</ele>
        <time>2011-10-02T12:49:06Z</time>
      </trkpt>
      <trkpt lat="43.89246" lon="3.50413">
        <ele>362</ele>
        <time>2011-10-02T12:49:38Z</time>
      </trkpt>
      <trkpt lat="43.89206" lon="3.50407">
        <ele>362</ele>
        <time>2011-10-02T12:50:11Z</time>
      </trkpt>
      <trkpt lat="43.89173" lon="3.50392">
        <ele>362</ele>
        <time>2011-10-02T12:50:46Z</time>
      </trkpt>
      <trkpt lat="43.89146" lon="3.50366">
        <ele>362</ele>
        <time>2011-10-02T12:51:23Z</time>
      </trkpt>
      <trkpt lat="43.89142" lon="3.50361">
        <ele>362</ele>
        <time>2011-10-02T12:51:29Z</time>
      </trkpt>
      <trkpt lat="43.89117" lon="3.50339">
        <ele>362</ele>
        <time>2011-10-02T12:52:12Z</time>
      </trkpt>
      <trkpt lat="43.89108" lon="3.50337">
        <ele>361</ele>
        <time>2011-10-02T12:52:25Z</time>
      </trkpt>
      <trkpt lat="43.89095" lon="3.50332">
        <ele>361</ele>
        <time>2011-10-02T12:52:59Z</time>
      </trkpt>
      <trkpt lat="43.89095" lon="3.50318">
        <ele>362</ele>
        <time>2011-10-02T12:53:08Z</time>
      </trkpt>
      <trkpt lat="43.89097" lon="3.50311">
        <ele>362</ele>
        <time>2011-10-02T12:53:13Z</time>
      </trkpt>
      <trkpt lat="43.89098" lon="3.50318">
        <ele>361</ele>
        <time>2011-10-02T12:54:06Z</time>
      </trkpt>
      <trkpt lat="43.89096" lon="3.50318">
        <ele>360</ele>
        <time>2011-10-02T12:54:34Z</time>
      </trkpt>
      <trkpt lat="43.8909" lon="3.50319">
        <ele>359</ele>
        <time>2011-10-02T12:54:55Z</time>
      </trkpt>
      <trkpt lat="43.89081" lon="3.50317">
        <ele>359</ele>
        <time>2011-10-02T12:55:09Z</time>
      </trkpt>
      <trkpt lat="43.89083" lon="3.50321">
        <ele>357</ele>
        <time>2011-10-02T12:55:35Z</time>
      </trkpt>
      <trkpt lat="43.8909" lon="3.50318">
        <ele>356</ele>
        <time>2011-10-02T12:56:20Z</time>
      </trkpt>
      <trkpt lat="43.89085" lon="3.50306">
        <ele>355</ele>
        <time>2011-10-02T12:56:57Z</time>
      </trkpt>
      <trkpt lat="43.89082" lon="3.50293">
        <ele>355</ele>
        <time>2011-10-02T12:57:07Z</time>
      </trkpt>
      <trkpt lat="43.89082" lon="3.50278">
        <ele>355</ele>
        <time>2011-10-02T12:57:17Z</time>
      </trkpt>
      <trkpt lat="43.89073" lon="3.50256">
        <ele>354</ele>
        <time>2011-10-02T12:57:43Z</time>
      </trkpt>
      <trkpt lat="43.89077" lon="3.50253">
        <ele>354</ele>
        <time>2011-10-02T12:57:47Z</time>
      </trkpt>
      <trkpt lat="43.89077" lon="3.50245">
        <ele>353</ele>
        <time>2011-10-02T12:58:12Z</time>
      </trkpt>
      <trkpt lat="43.89076" lon="3.50214">
        <ele>353</ele>
        <time>2011-10-02T12:58:52Z</time>
      </trkpt>
      <trkpt lat="43.89073" lon="3.50194">
        <ele>353</ele>
        <time>2011-10-02T12:59:11Z</time>
      </trkpt>
      <trkpt lat="43.89075" lon="3.50186">
        <ele>353</ele>
        <time>2011-10-02T12:59:17Z</time>
      </trkpt>
      <trkpt lat="43.89081" lon="3.50175">
        <ele>352</ele>
        <time>2011-10-02T12:59:26Z</time>
      </trkpt>
      <trkpt lat="43.89083" lon="3.50167">
        <ele>352</ele>
        <time>2011-10-02T12:59:31Z</time>
      </trkpt>
      <trkpt lat="43.89091" lon="3.50142">
        <ele>351</ele>
        <time>2011-10-02T12:59:53Z</time>
      </trkpt>
      <trkpt lat="43.891" lon="3.50127">
        <ele>351</ele>
        <time>2011-10-02T13:00:11Z</time>
      </trkpt>
      <trkpt lat="43.8911" lon="3.50087">
        <ele>352</ele>
        <time>2011-10-02T13:00:44Z</time>
      </trkpt>
      <trkpt lat="43.89123" lon="3.50057">
        <ele>353</ele>
        <time>2011-10-02T13:01:17Z</time>
      </trkpt>
      <trkpt lat="43.89134" lon="3.50018">
        <ele>356</ele>
        <time>2011-10-02T13:01:51Z</time>
      </trkpt>
      <trkpt lat="43.89134" lon="3.50013">
        <ele>357</ele>
        <time>2011-10-02T13:02:02Z</time>
      </trkpt>
      <trkpt lat="43.89139" lon="3.50007">
        <ele>357</ele>
        <time>2011-10-02T13:02:11Z</time>
      </trkpt>
      <trkpt lat="43.8914" lon="3.49996">
        <ele>358</ele>
        <time>2011-10-02T13:02:24Z</time>
      </trkpt>
      <trkpt lat="43.89141" lon="3.4999">
        <ele>357</ele>
        <time>2011-10-02T13:02:38Z</time>
      </trkpt>
      <trkpt lat="43.8914" lon="3.49979">
        <ele>357</ele>
        <time>2011-10-02T13:02:56Z</time>
      </trkpt>
      <trkpt lat="43.89143" lon="3.49973">
        <ele>357</ele>
        <time>2011-10-02T13:03:09Z</time>
      </trkpt>
      <trkpt lat="43.89147" lon="3.49968">
        <ele>357</ele>
        <time>2011-10-02T13:03:14Z</time>
      </trkpt>
      <trkpt lat="43.89152" lon="3.49955">
        <ele>357</ele>
        <time>2011-10-02T13:03:28Z</time>
      </trkpt>
      <trkpt lat="43.89158" lon="3.49933">
        <ele>356</ele>
        <time>2011-10-02T13:03:50Z</time>
      </trkpt>
      <trkpt lat="43.89155" lon="3.49903">
        <ele>357</ele>
        <time>2011-10-02T13:04:14Z</time>
      </trkpt>
      <trkpt lat="43.89158" lon="3.49894">
        <ele>357</ele>
        <time>2011-10-02T13:04:21Z</time>
      </trkpt>
      <trkpt lat="43.8916" lon="3.49887">
        <ele>357</ele>
        <time>2011-10-02T13:04:54Z</time>
      </trkpt>
      <trkpt lat="43.89165" lon="3.49883">
        <ele>357</ele>
        <time>2011-10-02T13:05:00Z</time>
      </trkpt>
      <trkpt lat="43.89163" lon="3.49875">
        <ele>357</ele>
        <time>2011-10-02T13:05:28Z</time>
      </trkpt>
      <trkpt lat="43.89165" lon="3.4986">
        <ele>357</ele>
        <time>2011-10-02T13:06:03Z</time>
      </trkpt>
      <trkpt lat="43.89174" lon="3.49867">
        <ele>356</ele>
        <time>2011-10-02T13:06:18Z</time>
      </trkpt>
      <trkpt lat="43.89182" lon="3.49875">
        <ele>355</ele>
        <time>2011-10-02T13:06:27Z</time>
      </trkpt>
      <trkpt lat="43.89186" lon="3.49875">
        <ele>354</ele>
        <time>2011-10-02T13:06:36Z</time>
      </trkpt>
      <trkpt lat="43.89187" lon="3.49867">
        <ele>353</ele>
        <time>2011-10-02T13:06:46Z</time>
      </trkpt>
      <trkpt lat="43.89181" lon="3.49842">
        <ele>351</ele>
        <time>2011-10-02T13:07:09Z</time>
      </trkpt>
      <trkpt lat="43.89188" lon="3.49833">
        <ele>350</ele>
        <time>2011-10-02T13:07:25Z</time>
      </trkpt>
      <trkpt lat="43.89213" lon="3.49821">
        <ele>348</ele>
        <time>2011-10-02T13:07:52Z</time>
      </trkpt>
      <trkpt lat="43.89212" lon="3.49829">
        <ele>347</ele>
        <time>2011-10-02T13:08:15Z</time>
      </trkpt>
      <trkpt lat="43.89208" lon="3.49832">
        <ele>350</ele>
        <time>2011-10-02T13:09:10Z</time>
      </trkpt>
      <trkpt lat="43.89198" lon="3.49834">
        <ele>350</ele>
        <time>2011-10-02T13:09:16Z</time>
      </trkpt>
      <trkpt lat="43.89189" lon="3.49827">
        <ele>350</ele>
        <time>2011-10-02T13:09:28Z</time>
      </trkpt>
      <trkpt lat="43.89162" lon="3.49786">
        <ele>351</ele>
        <time>2011-10-02T13:10:04Z</time>
      </trkpt>
      <trkpt lat="43.89144" lon="3.49759">
        <ele>351</ele>
        <time>2011-10-02T13:10:40Z</time>
      </trkpt>
      <trkpt lat="43.89125" lon="3.49748">
        <ele>351</ele>
        <time>2011-10-02T13:10:58Z</time>
      </trkpt>
      <trkpt lat="43.89117" lon="3.49741">
        <ele>352</ele>
        <time>2011-10-02T13:11:21Z</time>
      </trkpt>
      <trkpt lat="43.89106" lon="3.49742">
        <ele>351</ele>
        <time>2011-10-02T13:11:43Z</time>
      </trkpt>
      <trkpt lat="43.89074" lon="3.49748">
        <ele>350</ele>
        <time>2011-10-02T13:12:20Z</time>
      </trkpt>
      <trkpt lat="43.89036" lon="3.49748">
        <ele>350</ele>
        <time>2011-10-02T13:12:52Z</time>
      </trkpt>
      <trkpt lat="43.89018" lon="3.49738">
        <ele>350</ele>
        <time>2011-10-02T13:13:22Z</time>
      </trkpt>
      <trkpt lat="43.89019" lon="3.4973">
        <ele>350</ele>
        <time>2011-10-02T13:13:42Z</time>
      </trkpt>
      <trkpt lat="43.89027" lon="3.49725">
        <ele>350</ele>
        <time>2011-10-02T13:13:51Z</time>
      </trkpt>
      <trkpt lat="43.89033" lon="3.49729">
        <ele>351</ele>
        <time>2011-10-02T13:14:05Z</time>
      </trkpt>
      <trkpt lat="43.89035" lon="3.49738">
        <ele>351</ele>
        <time>2011-10-02T13:14:21Z</time>
      </trkpt>
      <trkpt lat="43.89025" lon="3.4974">
        <ele>351</ele>
        <time>2011-10-02T13:14:34Z</time>
      </trkpt>
      <trkpt lat="43.88997" lon="3.49743">
        <ele>352</ele>
        <time>2011-10-02T13:15:08Z</time>
      </trkpt>
      <trkpt lat="43.8898" lon="3.49732">
        <ele>352</ele>
        <time>2011-10-02T13:15:26Z</time>
      </trkpt>
      <trkpt lat="43.88972" lon="3.4974">
        <ele>352</ele>
        <time>2011-10-02T13:15:58Z</time>
      </trkpt>
      <trkpt lat="43.88953" lon="3.49739">
        <ele>351</ele>
        <time>2011-10-02T13:16:10Z</time>
      </trkpt>
      <trkpt lat="43.88945" lon="3.49734">
        <ele>351</ele>
        <time>2011-10-02T13:16:19Z</time>
      </trkpt>
      <trkpt lat="43.88945" lon="3.49726">
        <ele>351</ele>
        <time>2011-10-02T13:16:38Z</time>
      </trkpt>
      <trkpt lat="43.88939" lon="3.4972">
        <ele>350</ele>
        <time>2011-10-02T13:16:56Z</time>
      </trkpt>
      <trkpt lat="43.88915" lon="3.49697">
        <ele>348</ele>
        <time>2011-10-02T13:17:27Z</time>
      </trkpt>
      <trkpt lat="43.88909" lon="3.49687">
        <ele>348</ele>
        <time>2011-10-02T13:17:37Z</time>
      </trkpt>
      <trkpt lat="43.88891" lon="3.49638">
        <ele>346</ele>
        <time>2011-10-02T13:18:12Z</time>
      </trkpt>
      <trkpt lat="43.88889" lon="3.49624">
        <ele>345</ele>
        <time>2011-10-02T13:18:25Z</time>
      </trkpt>
      <trkpt lat="43.88901" lon="3.49572">
        <ele>345</ele>
        <time>2011-10-02T13:19:02Z</time>
      </trkpt>
      <trkpt lat="43.88911" lon="3.49549">
        <ele>345</ele>
        <time>2011-10-02T13:19:22Z</time>
      </trkpt>
      <trkpt lat="43.88922" lon="3.49542">
        <ele>346</ele>
        <time>2011-10-02T13:19:42Z</time>
      </trkpt>
      <trkpt lat="43.8895" lon="3.49523">
        <ele>346</ele>
        <time>2011-10-02T13:20:17Z</time>
      </trkpt>
      <trkpt lat="43.8899" lon="3.49503">
        <ele>347</ele>
        <time>2011-10-02T13:20:50Z</time>
      </trkpt>
      <trkpt lat="43.89024" lon="3.49492">
        <ele>348</ele>
        <time>2011-10-02T13:21:23Z</time>
      </trkpt>
      <trkpt lat="43.8903" lon="3.49493">
        <ele>349</ele>
        <time>2011-10-02T13:21:34Z</time>
      </trkpt>
      <trkpt lat="43.89038" lon="3.49484">
        <ele>350</ele>
        <time>2011-10-02T13:21:54Z</time>
      </trkpt>
      <trkpt lat="43.89072" lon="3.49457">
        <ele>351</ele>
        <time>2011-10-02T13:22:26Z</time>
      </trkpt>
      <trkpt lat="43.89072" lon="3.49444">
        <ele>353</ele>
        <time>2011-10-02T13:22:55Z</time>
      </trkpt>
      <trkpt lat="43.89073" lon="3.49436">
        <ele>353</ele>
        <time>2011-10-02T13:23:05Z</time>
      </trkpt>
      <trkpt lat="43.89073" lon="3.49429">
        <ele>354</ele>
        <time>2011-10-02T13:23:11Z</time>
      </trkpt>
      <trkpt lat="43.89079" lon="3.4942">
        <ele>354</ele>
        <time>2011-10-02T13:23:20Z</time>
      </trkpt>
      <trkpt lat="43.89088" lon="3.49412">
        <ele>354</ele>
        <time>2011-10-02T13:23:28Z</time>
      </trkpt>
      <trkpt lat="43.89089" lon="3.49398">
        <ele>354</ele>
        <time>2011-10-02T13:23:40Z</time>
      </trkpt>
      <trkpt lat="43.89075" lon="3.49364">
        <ele>355</ele>
        <time>2011-10-02T13:24:00Z</time>
      </trkpt>
      <trkpt lat="43.8908" lon="3.49352">
        <ele>356</ele>
        <time>2011-10-02T13:24:09Z</time>
      </trkpt>
      <trkpt lat="43.89078" lon="3.49339">
        <ele>356</ele>
        <time>2011-10-02T13:24:18Z</time>
      </trkpt>
      <trkpt lat="43.89063" lon="3.49303">
        <ele>356</ele>
        <time>2011-10-02T13:24:45Z</time>
      </trkpt>
      <trkpt lat="43.8907" lon="3.49286">
        <ele>355</ele>
        <time>2011-10-02T13:25:08Z</time>
      </trkpt>
      <trkpt lat="43.89076" lon="3.4926">
        <ele>355</ele>
        <time>2011-10-02T13:25:27Z</time>
      </trkpt>
      <trkpt lat="43.89074" lon="3.49245">
        <ele>355</ele>
        <time>2011-10-02T13:25:35Z</time>
      </trkpt>
      <trkpt lat="43.89083" lon="3.49221">
        <ele>354</ele>
        <time>2011-10-02T13:25:52Z</time>
      </trkpt>
      <trkpt lat="43.89082" lon="3.49214">
        <ele>353</ele>
        <time>2011-10-02T13:26:03Z</time>
      </trkpt>
      <trkpt lat="43.89089" lon="3.49205">
        <ele>352</ele>
        <time>2011-10-02T13:26:19Z</time>
      </trkpt>
      <trkpt lat="43.89087" lon="3.49192">
        <ele>352</ele>
        <time>2011-10-02T13:26:26Z</time>
      </trkpt>
      <trkpt lat="43.89088" lon="3.49179">
        <ele>351</ele>
        <time>2011-10-02T13:26:33Z</time>
      </trkpt>
      <trkpt lat="43.89093" lon="3.49174">
        <ele>351</ele>
        <time>2011-10-02T13:26:42Z</time>
      </trkpt>
      <trkpt lat="43.89093" lon="3.49166">
        <ele>350</ele>
        <time>2011-10-02T13:26:51Z</time>
      </trkpt>
      <trkpt lat="43.891" lon="3.49156">
        <ele>350</ele>
        <time>2011-10-02T13:27:00Z</time>
      </trkpt>
      <trkpt lat="43.89129" lon="3.49138">
        <ele>347</ele>
        <time>2011-10-02T13:27:31Z</time>
      </trkpt>
      <trkpt lat="43.89165" lon="3.49127">
        <ele>344</ele>
        <time>2011-10-02T13:28:09Z</time>
      </trkpt>
      <trkpt lat="43.89181" lon="3.49124">
        <ele>342</ele>
        <time>2011-10-02T13:28:27Z</time>
      </trkpt>
      <trkpt lat="43.89215" lon="3.49138">
        <ele>341</ele>
        <time>2011-10-02T13:29:03Z</time>
      </trkpt>
      <trkpt lat="43.89243" lon="3.4915">
        <ele>341</ele>
        <time>2011-10-02T13:29:34Z</time>
      </trkpt>
      <trkpt lat="43.89256" lon="3.49159">
        <ele>342</ele>
        <time>2011-10-02T13:30:02Z</time>
      </trkpt>
      <trkpt lat="43.89257" lon="3.49171">
        <ele>343</ele>
        <time>2011-10-02T13:30:28Z</time>
      </trkpt>
      <trkpt lat="43.89262" lon="3.49169">
        <ele>343</ele>
        <time>2011-10-02T13:30:34Z</time>
      </trkpt>
      <trkpt lat="43.89273" lon="3.49174">
        <ele>344</ele>
        <time>2011-10-02T13:30:54Z</time>
      </trkpt>
      <trkpt lat="43.89293" lon="3.49223">
        <ele>345</ele>
        <time>2011-10-02T13:31:34Z</time>
      </trkpt>
      <trkpt lat="43.89294" lon="3.49248">
        <ele>344</ele>
        <time>2011-10-02T13:32:03Z</time>
      </trkpt>
      <trkpt lat="43.89301" lon="3.4929">
        <ele>344</ele>
        <time>2011-10-02T13:32:36Z</time>
      </trkpt>
      <trkpt lat="43.89325" lon="3.49345">
        <ele>345</ele>
        <time>2011-10-02T13:33:10Z</time>
      </trkpt>
      <trkpt lat="43.89337" lon="3.49375">
        <ele>345</ele>
        <time>2011-10-02T13:33:33Z</time>
      </trkpt>
      <trkpt lat="43.89343" lon="3.49374">
        <ele>345</ele>
        <time>2011-10-02T13:33:47Z</time>
      </trkpt>
      <trkpt lat="43.89353" lon="3.49373">
        <ele>345</ele>
        <time>2011-10-02T13:34:06Z</time>
      </trkpt>
      <trkpt lat="43.8936" lon="3.49363">
        <ele>346</ele>
        <time>2011-10-02T13:34:19Z</time>
      </trkpt>
      <trkpt lat="43.8936" lon="3.49348">
        <ele>347</ele>
        <time>2011-10-02T13:34:34Z</time>
      </trkpt>
      <trkpt lat="43.89369" lon="3.49344">
        <ele>348</ele>
        <time>2011-10-02T13:34:39Z</time>
      </trkpt>
      <trkpt lat="43.89388" lon="3.49341">
        <ele>349</ele>
        <time>2011-10-02T13:34:51Z</time>
      </trkpt>
      <trkpt lat="43.89396" lon="3.49332">
        <ele>350</ele>
        <time>2011-10-02T13:35:03Z</time>
      </trkpt>
      <trkpt lat="43.89409" lon="3.49311">
        <ele>350</ele>
        <time>2011-10-02T13:35:21Z</time>
      </trkpt>
      <trkpt lat="43.8941" lon="3.49297">
        <ele>350</ele>
        <time>2011-10-02T13:35:29Z</time>
      </trkpt>
      <trkpt lat="43.89404" lon="3.49271">
        <ele>349</ele>
        <time>2011-10-02T13:35:49Z</time>
      </trkpt>
      <trkpt lat="43.89403" lon="3.49258">
        <ele>349</ele>
        <time>2011-10-02T13:35:59Z</time>
      </trkpt>
      <trkpt lat="43.89398" lon="3.49245">
        <ele>349</ele>
        <time>2011-10-02T13:36:05Z</time>
      </trkpt>
      <trkpt lat="43.89398" lon="3.49232">
        <ele>350</ele>
        <time>2011-10-02T13:36:11Z</time>
      </trkpt>
      <trkpt lat="43.89379" lon="3.49186">
        <ele>350</ele>
        <time>2011-10-02T13:36:43Z</time>
      </trkpt>
      <trkpt lat="43.89383" lon="3.49174">
        <ele>350</ele>
        <time>2011-10-02T13:36:52Z</time>
      </trkpt>
      <trkpt lat="43.8938" lon="3.49145">
        <ele>350</ele>
        <time>2011-10-02T13:37:12Z</time>
      </trkpt>
      <trkpt lat="43.89374" lon="3.49133">
        <ele>349</ele>
        <time>2011-10-02T13:37:21Z</time>
      </trkpt>
      <trkpt lat="43.89378" lon="3.49124">
        <ele>349</ele>
        <time>2011-10-02T13:37:46Z</time>
      </trkpt>
      <trkpt lat="43.8938" lon="3.49119">
        <ele>349</ele>
        <time>2011-10-02T13:37:58Z</time>
      </trkpt>
      <trkpt lat="43.89378" lon="3.49113">
        <ele>349</ele>
        <time>2011-10-02T13:38:03Z</time>
      </trkpt>
      <trkpt lat="43.89383" lon="3.49081">
        <ele>349</ele>
        <time>2011-10-02T13:38:33Z</time>
      </trkpt>
      <trkpt lat="43.89388" lon="3.49076">
        <ele>348</ele>
        <time>2011-10-02T13:39:07Z</time>
      </trkpt>
      <trkpt lat="43.89392" lon="3.49067">
        <ele>348</ele>
        <time>2011-10-02T13:39:21Z</time>
      </trkpt>
      <trkpt lat="43.89388" lon="3.49054">
        <ele>347</ele>
        <time>2011-10-02T13:39:35Z</time>
      </trkpt>
      <trkpt lat="43.89384" lon="3.49043">
        <ele>347</ele>
        <time>2011-10-02T13:39:44Z</time>
      </trkpt>
      <trkpt lat="43.89388" lon="3.49032">
        <ele>347</ele>
        <time>2011-10-02T13:39:52Z</time>
      </trkpt>
      <trkpt lat="43.89397" lon="3.48992">
        <ele>347</ele>
        <time>2011-10-02T13:40:24Z</time>
      </trkpt>
      <trkpt lat="43.89401" lon="3.48979">
        <ele>347</ele>
        <time>2011-10-02T13:40:36Z</time>
      </trkpt>
      <trkpt lat="43.89409" lon="3.48973">
        <ele>347</ele>
        <time>2011-10-02T13:40:45Z</time>
      </trkpt>
      <trkpt lat="43.89422" lon="3.48934">
        <ele>346</ele>
        <time>2011-10-02T13:41:17Z</time>
      </trkpt>
      <trkpt lat="43.89419" lon="3.4892">
        <ele>346</ele>
        <time>2011-10-02T13:41:23Z</time>
      </trkpt>
      <trkpt lat="43.89416" lon="3.48907">
        <ele>347</ele>
        <time>2011-10-02T13:41:29Z</time>
      </trkpt>
      <trkpt lat="43.89401" lon="3.48887">
        <ele>347</ele>
        <time>2011-10-02T13:41:38Z</time>
      </trkpt>
      <trkpt lat="43.89401" lon="3.4888">
        <ele>347</ele>
        <time>2011-10-02T13:41:43Z</time>
      </trkpt>
      <trkpt lat="43.89415" lon="3.48836">
        <ele>349</ele>
        <time>2011-10-02T13:42:23Z</time>
      </trkpt>
      <trkpt lat="43.89436" lon="3.48813">
        <ele>349</ele>
        <time>2011-10-02T13:43:00Z</time>
      </trkpt>
      <trkpt lat="43.89454" lon="3.48805">
        <ele>349</ele>
        <time>2011-10-02T13:43:36Z</time>
      </trkpt>
      <trkpt lat="43.89516" lon="3.48815">
        <ele>350</ele>
        <time>2011-10-02T13:44:16Z</time>
      </trkpt>
      <trkpt lat="43.89551" lon="3.48838">
        <ele>351</ele>
        <time>2011-10-02T13:44:49Z</time>
      </trkpt>
      <trkpt lat="43.89559" lon="3.48838">
        <ele>353</ele>
        <time>2011-10-02T13:45:22Z</time>
      </trkpt>
      <trkpt lat="43.89591" lon="3.48865">
        <ele>355</ele>
        <time>2011-10-02T13:45:54Z</time>
      </trkpt>
      <trkpt lat="43.89625" lon="3.48886">
        <ele>356</ele>
        <time>2011-10-02T13:46:24Z</time>
      </trkpt>
      <trkpt lat="43.89657" lon="3.48919">
        <ele>357</ele>
        <time>2011-10-02T13:46:58Z</time>
      </trkpt>
      <trkpt lat="43.89661" lon="3.48922">
        <ele>357</ele>
        <time>2011-10-02T13:47:03Z</time>
      </trkpt>
      <trkpt lat="43.89672" lon="3.48921">
        <ele>357</ele>
        <time>2011-10-02T13:47:21Z</time>
      </trkpt>
      <trkpt lat="43.89682" lon="3.48903">
        <ele>359</ele>
        <time>2011-10-02T13:47:37Z</time>
      </trkpt>
      <trkpt lat="43.89682" lon="3.48877">
        <ele>360</ele>
        <time>2011-10-02T13:47:58Z</time>
      </trkpt>
      <trkpt lat="43.89672" lon="3.48831">
        <ele>362</ele>
        <time>2011-10-02T13:48:33Z</time>
      </trkpt>
      <trkpt lat="43.89668" lon="3.4882">
        <ele>362</ele>
        <time>2011-10-02T13:48:42Z</time>
      </trkpt>
      <trkpt lat="43.89667" lon="3.48813">
        <ele>362</ele>
        <time>2011-10-02T13:48:48Z</time>
      </trkpt>
      <trkpt lat="43.89662" lon="3.48804">
        <ele>362</ele>
        <time>2011-10-02T13:48:55Z</time>
      </trkpt>
      <trkpt lat="43.89657" lon="3.4876">
        <ele>362</ele>
        <time>2011-10-02T13:49:25Z</time>
      </trkpt>
      <trkpt lat="43.89654" lon="3.48755">
        <ele>362</ele>
        <time>2011-10-02T13:49:29Z</time>
      </trkpt>
      <trkpt lat="43.89652" lon="3.48729">
        <ele>361</ele>
        <time>2011-10-02T13:49:45Z</time>
      </trkpt>
      <trkpt lat="43.8966" lon="3.48696">
        <ele>360</ele>
        <time>2011-10-02T13:50:07Z</time>
      </trkpt>
      <trkpt lat="43.89656" lon="3.48687">
        <ele>361</ele>
        <time>2011-10-02T13:50:46Z</time>
      </trkpt>
      <trkpt lat="43.89661" lon="3.48685">
        <ele>361</ele>
        <time>2011-10-02T13:50:58Z</time>
      </trkpt>
      <trkpt lat="43.89664" lon="3.4868">
        <ele>362</ele>
        <time>2011-10-02T13:51:14Z</time>
      </trkpt>
      <trkpt lat="43.89664" lon="3.48673">
        <ele>362</ele>
        <time>2011-10-02T13:51:20Z</time>
      </trkpt>
      <trkpt lat="43.89667" lon="3.48664">
        <ele>363</ele>
        <time>2011-10-02T13:51:27Z</time>
      </trkpt>
      <trkpt lat="43.89668" lon="3.48656">
        <ele>363</ele>
        <time>2011-10-02T13:51:32Z</time>
      </trkpt>
      <trkpt lat="43.89672" lon="3.48649">
        <ele>364</ele>
        <time>2011-10-02T13:51:38Z</time>
      </trkpt>
      <trkpt lat="43.89677" lon="3.48628">
        <ele>365</ele>
        <time>2011-10-02T13:51:53Z</time>
      </trkpt>
      <trkpt lat="43.89673" lon="3.48608">
        <ele>365</ele>
        <time>2011-10-02T13:52:05Z</time>
      </trkpt>
      <trkpt lat="43.89674" lon="3.4859">
        <ele>366</ele>
        <time>2011-10-02T13:52:17Z</time>
      </trkpt>
      <trkpt lat="43.89673" lon="3.48578">
        <ele>366</ele>
        <time>2011-10-02T13:52:31Z</time>
      </trkpt>
      <trkpt lat="43.89678" lon="3.48573">
        <ele>367</ele>
        <time>2011-10-02T13:52:42Z</time>
      </trkpt>
      <trkpt lat="43.89682" lon="3.48573">
        <ele>367</ele>
        <time>2011-10-02T13:52:48Z</time>
      </trkpt>
      <trkpt lat="43.89688" lon="3.48576">
        <ele>368</ele>
        <time>2011-10-02T13:53:01Z</time>
      </trkpt>
      <trkpt lat="43.8969" lon="3.48569">
        <ele>368</ele>
        <time>2011-10-02T13:53:05Z</time>
      </trkpt>
      <trkpt lat="43.89704" lon="3.48514">
        <ele>371</ele>
        <time>2011-10-02T13:53:39Z</time>
      </trkpt>
      <trkpt lat="43.89725" lon="3.48475">
        <ele>372</ele>
        <time>2011-10-02T13:54:11Z</time>
      </trkpt>
      <trkpt lat="43.89746" lon="3.48438">
        <ele>372</ele>
        <time>2011-10-02T13:54:45Z</time>
      </trkpt>
      <trkpt lat="43.89749" lon="3.48433">
        <ele>372</ele>
        <time>2011-10-02T13:54:50Z</time>
      </trkpt>
      <trkpt lat="43.89752" lon="3.48414">
        <ele>372</ele>
        <time>2011-10-02T13:55:03Z</time>
      </trkpt>
      <trkpt lat="43.89767" lon="3.48391">
        <ele>371</ele>
        <time>2011-10-02T13:55:35Z</time>
      </trkpt>
      <trkpt lat="43.89785" lon="3.48364">
        <ele>371</ele>
        <time>2011-10-02T13:56:02Z</time>
      </trkpt>
      <trkpt lat="43.89805" lon="3.48334">
        <ele>374</ele>
        <time>2011-10-02T13:56:31Z</time>
      </trkpt>
      <trkpt lat="43.89829" lon="3.4833">
        <ele>377</ele>
        <time>2011-10-02T13:56:59Z</time>
      </trkpt>
      <trkpt lat="43.89838" lon="3.48326">
        <ele>377</ele>
        <time>2011-10-02T13:57:04Z</time>
      </trkpt>
      <trkpt lat="43.89863" lon="3.48307">
        <ele>376</ele>
        <time>2011-10-02T13:57:42Z</time>
      </trkpt>
      <trkpt lat="43.89884" lon="3.48297">
        <ele>375</ele>
        <time>2011-10-02T13:58:03Z</time>
      </trkpt>
      <trkpt lat="43.89889" lon="3.48292">
        <ele>375</ele>
        <time>2011-10-02T13:58:08Z</time>
      </trkpt>
      <trkpt lat="43.89901" lon="3.48287">
        <ele>376</ele>
        <time>2011-10-02T13:58:24Z</time>
      </trkpt>
      <trkpt lat="43.89905" lon="3.48292">
        <ele>376</ele>
        <time>2011-10-02T13:58:31Z</time>
      </trkpt>
      <trkpt lat="43.89909" lon="3.48294">
        <ele>377</ele>
        <time>2011-10-02T13:58:41Z</time>
      </trkpt>
      <trkpt lat="43.89925" lon="3.4829">
        <ele>377</ele>
        <time>2011-10-02T13:59:14Z</time>
      </trkpt>
      <trkpt lat="43.89952" lon="3.48277">
        <ele>376</ele>
        <time>2011-10-02T13:59:46Z</time>
      </trkpt>
      <trkpt lat="43.89976" lon="3.48279">
        <ele>375</ele>
        <time>2011-10-02T14:00:19Z</time>
      </trkpt>
      <trkpt lat="43.89976" lon="3.48286">
        <ele>375</ele>
        <time>2011-10-02T14:00:27Z</time>
      </trkpt>
      <trkpt lat="43.89973" lon="3.48285">
        <ele>374</ele>
        <time>2011-10-02T14:00:49Z</time>
      </trkpt>
      <trkpt lat="43.89961" lon="3.48286">
        <ele>373</ele>
        <time>2011-10-02T14:01:04Z</time>
      </trkpt>
      <trkpt lat="43.89962" lon="3.48294">
        <ele>373</ele>
        <time>2011-10-02T14:01:22Z</time>
      </trkpt>
      <trkpt lat="43.89963" lon="3.48298">
        <ele>372</ele>
        <time>2011-10-02T14:01:35Z</time>
      </trkpt>
      <trkpt lat="43.89968" lon="3.48298">
        <ele>372</ele>
        <time>2011-10-02T14:01:39Z</time>
      </trkpt>
      <trkpt lat="43.89973" lon="3.48298">
        <ele>371</ele>
        <time>2011-10-02T14:02:06Z</time>
      </trkpt>
      <trkpt lat="43.8997" lon="3.48292">
        <ele>371</ele>
        <time>2011-10-02T14:02:14Z</time>
      </trkpt>
      <trkpt lat="43.8997" lon="3.48298">
        <ele>371</ele>
        <time>2011-10-02T14:02:45Z</time>
      </trkpt>
      <trkpt lat="43.89962" lon="3.48298">
        <ele>371</ele>
        <time>2011-10-02T14:04:58Z</time>
      </trkpt>
      <trkpt lat="43.89963" lon="3.48303">
        <ele>372</ele>
        <time>2011-10-02T14:05:07Z</time>
      </trkpt>
      <trkpt lat="43.89962" lon="3.48303">
        <ele>371</ele>
        <time>2011-10-02T14:06:27Z</time>
      </trkpt>
      <trkpt lat="43.89959" lon="3.48298">
        <ele>371</ele>
        <time>2011-10-02T14:06:58Z</time>
      </trkpt>
      <trkpt lat="43.89954" lon="3.48295">
        <ele>371</ele>
        <time>2011-10-02T14:07:16Z</time>
      </trkpt>
      <trkpt lat="43.89953" lon="3.48307">
        <ele>370</ele>
        <time>2011-10-02T14:07:50Z</time>
      </trkpt>
      <trkpt lat="43.89962" lon="3.48309">
        <ele>370</ele>
        <time>2011-10-02T14:08:01Z</time>
      </trkpt>
      <trkpt lat="43.89963" lon="3.48301">
        <ele>370</ele>
        <time>2011-10-02T14:08:19Z</time>
      </trkpt>
      <trkpt lat="43.89959" lon="3.48304">
        <ele>370</ele>
        <time>2011-10-02T14:08:40Z</time>
      </trkpt>
      <trkpt lat="43.89959" lon="3.4831">
        <ele>370</ele>
        <time>2011-10-02T14:08:56Z</time>
      </trkpt>
      <trkpt lat="43.89957" lon="3.48309">
        <ele>371</ele>
        <time>2011-10-02T14:09:33Z</time>
      </trkpt>
      <trkpt lat="43.89953" lon="3.48314">
        <ele>372</ele>
        <time>2011-10-02T14:10:12Z</time>
      </trkpt>
      <trkpt lat="43.89957" lon="3.48319">
        <ele>372</ele>
        <time>2011-10-02T14:10:35Z</time>
      </trkpt>
      <trkpt lat="43.89954" lon="3.48315">
        <ele>372</ele>
        <time>2011-10-02T14:12:25Z</time>
      </trkpt>
      <trkpt lat="43.89955" lon="3.48306">
        <ele>371</ele>
        <time>2011-10-02T14:12:47Z</time>
      </trkpt>
      <trkpt lat="43.8995" lon="3.48308">
        <ele>370</ele>
        <time>2011-10-02T14:14:13Z</time>
      </trkpt>
      <trkpt lat="43.89946" lon="3.48311">
        <ele>370</ele>
        <time>2011-10-02T14:14:25Z</time>
      </trkpt>
      <trkpt lat="43.89943" lon="3.48315">
        <ele>370</ele>
        <time>2011-10-02T14:14:40Z</time>
      </trkpt>
      <trkpt lat="43.89941" lon="3.48324">
        <ele>370</ele>
        <time>2011-10-02T14:15:38Z</time>
      </trkpt>
      <trkpt lat="43.89928" lon="3.48319">
        <ele>370</ele>
        <time>2011-10-02T14:16:04Z</time>
      </trkpt>
      <trkpt lat="43.89925" lon="3.48318">
        <ele>370</ele>
        <time>2011-10-02T14:17:36Z</time>
      </trkpt>
      <trkpt lat="43.89917" lon="3.48318">
        <ele>371</ele>
        <time>2011-10-02T14:18:01Z</time>
      </trkpt>
      <trkpt lat="43.89914" lon="3.48314">
        <ele>371</ele>
        <time>2011-10-02T14:18:39Z</time>
      </trkpt>
      <trkpt lat="43.89907" lon="3.48322">
        <ele>370</ele>
        <time>2011-10-02T14:19:23Z</time>
      </trkpt>
      <trkpt lat="43.89907" lon="3.48334">
        <ele>371</ele>
        <time>2011-10-02T14:19:42Z</time>
      </trkpt>
      <trkpt lat="43.89906" lon="3.48337">
        <ele>371</ele>
        <time>2011-10-02T14:19:48Z</time>
      </trkpt>
      <trkpt lat="43.89898" lon="3.48339">
        <ele>372</ele>
        <time>2011-10-02T14:21:01Z</time>
      </trkpt>
      <trkpt lat="43.8989" lon="3.48333">
        <ele>372</ele>
        <time>2011-10-02T14:21:16Z</time>
      </trkpt>
      <trkpt lat="43.89886" lon="3.48337">
        <ele>371</ele>
        <time>2011-10-02T14:21:52Z</time>
      </trkpt>
      <trkpt lat="43.89897" lon="3.48362">
        <ele>371</ele>
        <time>2011-10-02T14:22:33Z</time>
      </trkpt>
      <trkpt lat="43.89897" lon="3.48352">
        <ele>373</ele>
        <time>2011-10-02T14:23:32Z</time>
      </trkpt>
      <trkpt lat="43.89898" lon="3.48338">
        <ele>373</ele>
        <time>2011-10-02T14:23:46Z</time>
      </trkpt>
      <trkpt lat="43.89893" lon="3.48326">
        <ele>373</ele>
        <time>2011-10-02T14:24:01Z</time>
      </trkpt>
      <trkpt lat="43.89895" lon="3.48313">
        <ele>373</ele>
        <time>2011-10-02T14:24:21Z</time>
      </trkpt>
      <trkpt lat="43.89912" lon="3.48307">
        <ele>373</ele>
        <time>2011-10-02T14:25:05Z</time>
      </trkpt>
      <trkpt lat="43.89921" lon="3.48313">
        <ele>373</ele>
        <time>2011-10-02T14:25:17Z</time>
      </trkpt>
      <trkpt lat="43.89916" lon="3.48316">
        <ele>372</ele>
        <time>2011-10-02T14:26:30Z</time>
      </trkpt>
      <trkpt lat="43.89909" lon="3.48314">
        <ele>372</ele>
        <time>2011-10-02T14:27:00Z</time>
      </trkpt>
      <trkpt lat="43.89894" lon="3.48324">
        <ele>372</ele>
        <time>2011-10-02T14:27:29Z</time>
      </trkpt>
      <trkpt lat="43.899" lon="3.48319">
        <ele>372</ele>
        <time>2011-10-02T14:27:44Z</time>
      </trkpt>
      <trkpt lat="43.89907" lon="3.48335">
        <ele>373</ele>
        <time>2011-10-02T14:28:08Z</time>
      </trkpt>
      <trkpt lat="43.89916" lon="3.4835">
        <ele>373</ele>
        <time>2011-10-02T14:28:26Z</time>
      </trkpt>
      <trkpt lat="43.89916" lon="3.4835">
        <ele>373</ele>
        <time>2011-10-02T14:28:34Z</time>
      </trkpt>
      <trkpt lat="43.89897" lon="3.48318">
        <ele>364</ele>
        <time>2011-10-02T14:32:04Z</time>
      </trkpt>
      <trkpt lat="43.89904" lon="3.48321">
        <ele>365</ele>
        <time>2011-10-02T14:32:36Z</time>
      </trkpt>
      <trkpt lat="43.89915" lon="3.4834">
        <ele>366</ele>
        <time>2011-10-02T14:34:06Z</time>
      </trkpt>
      <trkpt lat="43.89916" lon="3.48344">
        <ele>365</ele>
        <time>2011-10-02T14:34:38Z</time>
      </trkpt>
      <trkpt lat="43.8991" lon="3.48347">
        <ele>366</ele>
        <time>2011-10-02T14:34:56Z</time>
      </trkpt>
      <trkpt lat="43.89914" lon="3.48351">
        <ele>368</ele>
        <time>2011-10-02T14:35:05Z</time>
      </trkpt>
      <trkpt lat="43.8993" lon="3.4838">
        <ele>378</ele>
        <time>2011-10-02T14:36:11Z</time>
      </trkpt>
      <trkpt lat="43.89933" lon="3.48366">
        <ele>378</ele>
        <time>2011-10-02T14:36:24Z</time>
      </trkpt>
      <trkpt lat="43.89928" lon="3.48352">
        <ele>378</ele>
        <time>2011-10-02T14:36:31Z</time>
      </trkpt>
      <trkpt lat="43.89928" lon="3.48338">
        <ele>380</ele>
        <time>2011-10-02T14:36:50Z</time>
      </trkpt>
      <trkpt lat="43.89933" lon="3.48337">
        <ele>381</ele>
        <time>2011-10-02T14:37:50Z</time>
      </trkpt>
      <trkpt lat="43.89935" lon="3.48328">
        <ele>382</ele>
        <time>2011-10-02T14:38:05Z</time>
      </trkpt>
      <trkpt lat="43.8994" lon="3.48327">
        <ele>382</ele>
        <time>2011-10-02T14:38:27Z</time>
      </trkpt>
      <trkpt lat="43.89948" lon="3.48323">
        <ele>379</ele>
        <time>2011-10-02T14:39:08Z</time>
      </trkpt>
      <trkpt lat="43.89949" lon="3.4831">
        <ele>378</ele>
        <time>2011-10-02T14:39:48Z</time>
      </trkpt>
      <trkpt lat="43.89953" lon="3.48307">
        <ele>377</ele>
        <time>2011-10-02T14:39:59Z</time>
      </trkpt>
      <trkpt lat="43.89958" lon="3.48317">
        <ele>374</ele>
        <time>2011-10-02T14:40:40Z</time>
      </trkpt>
      <trkpt lat="43.89957" lon="3.48324">
        <ele>373</ele>
        <time>2011-10-02T14:40:52Z</time>
      </trkpt>
      <trkpt lat="43.89962" lon="3.48287">
        <ele>371</ele>
        <time>2011-10-02T14:43:14Z</time>
      </trkpt>
      <trkpt lat="43.89959" lon="3.48292">
        <ele>370</ele>
        <time>2011-10-02T14:43:25Z</time>
      </trkpt>
      <trkpt lat="43.89964" lon="3.48287">
        <ele>372</ele>
        <time>2011-10-02T14:44:29Z</time>
      </trkpt>
      <trkpt lat="43.89971" lon="3.48287">
        <ele>373</ele>
        <time>2011-10-02T14:44:40Z</time>
      </trkpt>
      <trkpt lat="43.89976" lon="3.48283">
        <ele>373</ele>
        <time>2011-10-02T14:44:50Z</time>
      </trkpt>
      <trkpt lat="43.89976" lon="3.48276">
        <ele>373</ele>
        <time>2011-10-02T14:45:39Z</time>
      </trkpt>
      <trkpt lat="43.89982" lon="3.48273">
        <ele>373</ele>
        <time>2011-10-02T14:47:03Z</time>
      </trkpt>
      <trkpt lat="43.89984" lon="3.48273">
        <ele>374</ele>
        <time>2011-10-02T14:47:15Z</time>
      </trkpt>
      <trkpt lat="43.89983" lon="3.48283">
        <ele>374</ele>
        <time>2011-10-02T14:47:44Z</time>
      </trkpt>
      <trkpt lat="43.8998" lon="3.48289">
        <ele>374</ele>
        <time>2011-10-02T14:47:48Z</time>
      </trkpt>
      <trkpt lat="43.89976" lon="3.48287">
        <ele>374</ele>
        <time>2011-10-02T14:48:25Z</time>
      </trkpt>
      <trkpt lat="43.89977" lon="3.48293">
        <ele>374</ele>
        <time>2011-10-02T14:49:30Z</time>
      </trkpt>
      <trkpt lat="43.89985" lon="3.48289">
        <ele>374</ele>
        <time>2011-10-02T14:49:52Z</time>
      </trkpt>
      <trkpt lat="43.89982" lon="3.48284">
        <ele>374</ele>
        <time>2011-10-02T14:50:09Z</time>
      </trkpt>
      <trkpt lat="43.89977" lon="3.48286">
        <ele>374</ele>
        <time>2011-10-02T14:50:14Z</time>
      </trkpt>
      <trkpt lat="43.89973" lon="3.48285">
        <ele>373</ele>
        <time>2011-10-02T14:50:35Z</time>
      </trkpt>
      <trkpt lat="43.89962" lon="3.48288">
        <ele>371</ele>
        <time>2011-10-02T14:50:58Z</time>
      </trkpt>
      <trkpt lat="43.8996" lon="3.48293">
        <ele>371</ele>
        <time>2011-10-02T14:51:14Z</time>
      </trkpt>
      <trkpt lat="43.8996" lon="3.48305">
        <ele>370</ele>
        <time>2011-10-02T14:51:38Z</time>
      </trkpt>
      <trkpt lat="43.89952" lon="3.48311">
        <ele>369</ele>
        <time>2011-10-02T14:52:03Z</time>
      </trkpt>
      <trkpt lat="43.89963" lon="3.48325">
        <ele>369</ele>
        <time>2011-10-02T14:52:25Z</time>
      </trkpt>
      <trkpt lat="43.8997" lon="3.48334">
        <ele>369</ele>
        <time>2011-10-02T14:52:46Z</time>
      </trkpt>
      <trkpt lat="43.89968" lon="3.48341">
        <ele>369</ele>
        <time>2011-10-02T14:53:13Z</time>
      </trkpt>
      <trkpt lat="43.89959" lon="3.48346">
        <ele>369</ele>
        <time>2011-10-02T14:53:30Z</time>
      </trkpt>
      <trkpt lat="43.89942" lon="3.48341">
        <ele>369</ele>
        <time>2011-10-02T14:54:10Z</time>
      </trkpt>
      <trkpt lat="43.89928" lon="3.48334">
        <ele>369</ele>
        <time>2011-10-02T14:54:18Z</time>
      </trkpt>
      <trkpt lat="43.89924" lon="3.48337">
        <ele>369</ele>
        <time>2011-10-02T14:54:24Z</time>
      </trkpt>
      <trkpt lat="43.89921" lon="3.48342">
        <ele>370</ele>
        <time>2011-10-02T14:54:34Z</time>
      </trkpt>
      <trkpt lat="43.89913" lon="3.48354">
        <ele>370</ele>
        <time>2011-10-02T14:54:58Z</time>
      </trkpt>
      <trkpt lat="43.89908" lon="3.48358">
        <ele>370</ele>
        <time>2011-10-02T14:55:21Z</time>
      </trkpt>
      <trkpt lat="43.89897" lon="3.48359">
        <ele>370</ele>
        <time>2011-10-02T14:55:46Z</time>
      </trkpt>
      <trkpt lat="43.89869" lon="3.48386">
        <ele>370</ele>
        <time>2011-10-02T14:56:24Z</time>
      </trkpt>
      <trkpt lat="43.89864" lon="3.48387">
        <ele>370</ele>
        <time>2011-10-02T14:56:29Z</time>
      </trkpt>
      <trkpt lat="43.89851" lon="3.48405">
        <ele>370</ele>
        <time>2011-10-02T14:56:43Z</time>
      </trkpt>
      <trkpt lat="43.89832" lon="3.48437">
        <ele>372</ele>
        <time>2011-10-02T14:57:17Z</time>
      </trkpt>
      <trkpt lat="43.89821" lon="3.48439">
        <ele>372</ele>
        <time>2011-10-02T14:58:00Z</time>
      </trkpt>
      <trkpt lat="43.89817" lon="3.48444">
        <ele>372</ele>
        <time>2011-10-02T14:58:09Z</time>
      </trkpt>
      <trkpt lat="43.89823" lon="3.48449">
        <ele>373</ele>
        <time>2011-10-02T14:58:45Z</time>
      </trkpt>
      <trkpt lat="43.89822" lon="3.48455">
        <ele>373</ele>
        <time>2011-10-02T14:59:17Z</time>
      </trkpt>
      <trkpt lat="43.89812" lon="3.48474">
        <ele>373</ele>
        <time>2011-10-02T14:59:32Z</time>
      </trkpt>
      <trkpt lat="43.89793" lon="3.48515">
        <ele>373</ele>
        <time>2011-10-02T15:00:14Z</time>
      </trkpt>
      <trkpt lat="43.89774" lon="3.4854">
        <ele>375</ele>
        <time>2011-10-02T15:00:50Z</time>
      </trkpt>
      <trkpt lat="43.89775" lon="3.48554">
        <ele>375</ele>
        <time>2011-10-02T15:01:05Z</time>
      </trkpt>
      <trkpt lat="43.89765" lon="3.48588">
        <ele>375</ele>
        <time>2011-10-02T15:01:25Z</time>
      </trkpt>
      <trkpt lat="43.89752" lon="3.4861">
        <ele>374</ele>
        <time>2011-10-02T15:01:41Z</time>
      </trkpt>
      <trkpt lat="43.89739" lon="3.48641">
        <ele>371</ele>
        <time>2011-10-02T15:02:18Z</time>
      </trkpt>
      <trkpt lat="43.89731" lon="3.48666">
        <ele>370</ele>
        <time>2011-10-02T15:02:35Z</time>
      </trkpt>
      <trkpt lat="43.89733" lon="3.48679">
        <ele>369</ele>
        <time>2011-10-02T15:02:44Z</time>
      </trkpt>
      <trkpt lat="43.8973" lon="3.48705">
        <ele>368</ele>
        <time>2011-10-02T15:03:12Z</time>
      </trkpt>
      <trkpt lat="43.89736" lon="3.48731">
        <ele>368</ele>
        <time>2011-10-02T15:03:30Z</time>
      </trkpt>
      <trkpt lat="43.89724" lon="3.48771">
        <ele>368</ele>
        <time>2011-10-02T15:03:40Z</time>
      </trkpt>
      <trkpt lat="43.89727" lon="3.48785">
        <ele>368</ele>
        <time>2011-10-02T15:03:48Z</time>
      </trkpt>
      <trkpt lat="43.89732" lon="3.48798">
        <ele>369</ele>
        <time>2011-10-02T15:03:59Z</time>
      </trkpt>
      <trkpt lat="43.89731" lon="3.48812">
        <ele>369</ele>
        <time>2011-10-02T15:04:13Z</time>
      </trkpt>
      <trkpt lat="43.89733" lon="3.48819">
        <ele>369</ele>
        <time>2011-10-02T15:04:34Z</time>
      </trkpt>
      <trkpt lat="43.89738" lon="3.48826">
        <ele>370</ele>
        <time>2011-10-02T15:05:04Z</time>
      </trkpt>
      <trkpt lat="43.89747" lon="3.48831">
        <ele>370</ele>
        <time>2011-10-02T15:05:16Z</time>
      </trkpt>
      <trkpt lat="43.89768" lon="3.48828">
        <ele>369</ele>
        <time>2011-10-02T15:05:36Z</time>
      </trkpt>
      <trkpt lat="43.898" lon="3.48801">
        <ele>367</ele>
        <time>2011-10-02T15:06:11Z</time>
      </trkpt>
      <trkpt lat="43.89837" lon="3.48786">
        <ele>365</ele>
        <time>2011-10-02T15:06:57Z</time>
      </trkpt>
      <trkpt lat="43.8984" lon="3.48781">
        <ele>365</ele>
        <time>2011-10-02T15:07:01Z</time>
      </trkpt>
      <trkpt lat="43.8985" lon="3.48779">
        <ele>364</ele>
        <time>2011-10-02T15:07:13Z</time>
      </trkpt>
      <trkpt lat="43.89877" lon="3.48791">
        <ele>363</ele>
        <time>2011-10-02T15:07:43Z</time>
      </trkpt>
      <trkpt lat="43.8991" lon="3.48812">
        <ele>363</ele>
        <time>2011-10-02T15:08:24Z</time>
      </trkpt>
      <trkpt lat="43.89942" lon="3.48845">
        <ele>362</ele>
        <time>2011-10-02T15:08:59Z</time>
      </trkpt>
      <trkpt lat="43.89959" lon="3.48874">
        <ele>362</ele>
        <time>2011-10-02T15:09:29Z</time>
      </trkpt>
      <trkpt lat="43.89965" lon="3.48885">
        <ele>363</ele>
        <time>2011-10-02T15:09:41Z</time>
      </trkpt>
      <trkpt lat="43.89969" lon="3.48902">
        <ele>363</ele>
        <time>2011-10-02T15:09:56Z</time>
      </trkpt>
      <trkpt lat="43.89975" lon="3.48912">
        <ele>363</ele>
        <time>2011-10-02T15:10:08Z</time>
      </trkpt>
      <trkpt lat="43.89988" lon="3.48926">
        <ele>363</ele>
        <time>2011-10-02T15:10:23Z</time>
      </trkpt>
      <trkpt lat="43.89994" lon="3.4893">
        <ele>363</ele>
        <time>2011-10-02T15:10:38Z</time>
      </trkpt>
      <trkpt lat="43.89998" lon="3.48927">
        <ele>363</ele>
        <time>2011-10-02T15:10:54Z</time>
      </trkpt>
      <trkpt lat="43.89999" lon="3.48933">
        <ele>364</ele>
        <time>2011-10-02T15:11:03Z</time>
      </trkpt>
      <trkpt lat="43.89999" lon="3.48948">
        <ele>366</ele>
        <time>2011-10-02T15:11:13Z</time>
      </trkpt>
      <trkpt lat="43.89996" lon="3.48955">
        <ele>367</ele>
        <time>2011-10-02T15:11:19Z</time>
      </trkpt>
      <trkpt lat="43.89966" lon="3.48984">
        <ele>370</ele>
        <time>2011-10-02T15:11:55Z</time>
      </trkpt>
      <trkpt lat="43.89962" lon="3.48988">
        <ele>370</ele>
        <time>2011-10-02T15:12:00Z</time>
      </trkpt>
      <trkpt lat="43.8996" lon="3.48993">
        <ele>370</ele>
        <time>2011-10-02T15:12:06Z</time>
      </trkpt>
      <trkpt lat="43.89957" lon="3.48994">
        <ele>370</ele>
        <time>2011-10-02T15:12:18Z</time>
      </trkpt>
      <trkpt lat="43.89956" lon="3.49">
        <ele>370</ele>
        <time>2011-10-02T15:12:25Z</time>
      </trkpt>
      <trkpt lat="43.89952" lon="3.49013">
        <ele>370</ele>
        <time>2011-10-02T15:12:38Z</time>
      </trkpt>
      <trkpt lat="43.89955" lon="3.49029">
        <ele>370</ele>
        <time>2011-10-02T15:12:50Z</time>
      </trkpt>
      <trkpt lat="43.89954" lon="3.49035">
        <ele>371</ele>
        <time>2011-10-02T15:12:55Z</time>
      </trkpt>
      <trkpt lat="43.89946" lon="3.49043">
        <ele>371</ele>
        <time>2011-10-02T15:13:08Z</time>
      </trkpt>
      <trkpt lat="43.89937" lon="3.49059">
        <ele>371</ele>
        <time>2011-10-02T15:13:24Z</time>
      </trkpt>
      <trkpt lat="43.89907" lon="3.49067">
        <ele>371</ele>
        <time>2011-10-02T15:13:54Z</time>
      </trkpt>
      <trkpt lat="43.89881" lon="3.49095">
        <ele>372</ele>
        <time>2011-10-02T15:14:25Z</time>
      </trkpt>
      <trkpt lat="43.89866" lon="3.49114">
        <ele>374</ele>
        <time>2011-10-02T15:14:47Z</time>
      </trkpt>
      <trkpt lat="43.89865" lon="3.49121">
        <ele>375</ele>
        <time>2011-10-02T15:14:54Z</time>
      </trkpt>
      <trkpt lat="43.89848" lon="3.49148">
        <ele>380</ele>
        <time>2011-10-02T15:15:25Z</time>
      </trkpt>
      <trkpt lat="43.89833" lon="3.49189">
        <ele>382</ele>
        <time>2011-10-02T15:16:01Z</time>
      </trkpt>
      <trkpt lat="43.8982" lon="3.49222">
        <ele>382</ele>
        <time>2011-10-02T15:16:34Z</time>
      </trkpt>
      <trkpt lat="43.89817" lon="3.49255">
        <ele>382</ele>
        <time>2011-10-02T15:17:08Z</time>
      </trkpt>
      <trkpt lat="43.89815" lon="3.49296">
        <ele>383</ele>
        <time>2011-10-02T15:17:39Z</time>
      </trkpt>
      <trkpt lat="43.89818" lon="3.49309">
        <ele>384</ele>
        <time>2011-10-02T15:17:48Z</time>
      </trkpt>
      <trkpt lat="43.89813" lon="3.49334">
        <ele>388</ele>
        <time>2011-10-02T15:18:11Z</time>
      </trkpt>
      <trkpt lat="43.89806" lon="3.49344">
        <ele>391</ele>
        <time>2011-10-02T15:18:33Z</time>
      </trkpt>
      <trkpt lat="43.8981" lon="3.49354">
        <ele>392</ele>
        <time>2011-10-02T15:18:44Z</time>
      </trkpt>
      <trkpt lat="43.89801" lon="3.49362">
        <ele>395</ele>
        <time>2011-10-02T15:18:57Z</time>
      </trkpt>
      <trkpt lat="43.89773" lon="3.4938">
        <ele>399</ele>
        <time>2011-10-02T15:19:27Z</time>
      </trkpt>
      <trkpt lat="43.89748" lon="3.49383">
        <ele>403</ele>
        <time>2011-10-02T15:19:58Z</time>
      </trkpt>
      <trkpt lat="43.89717" lon="3.49371">
        <ele>406</ele>
        <time>2011-10-02T15:20:30Z</time>
      </trkpt>
      <trkpt lat="43.89693" lon="3.49353">
        <ele>408</ele>
        <time>2011-10-02T15:21:00Z</time>
      </trkpt>
      <trkpt lat="43.89689" lon="3.49351">
        <ele>409</ele>
        <time>2011-10-02T15:21:07Z</time>
      </trkpt>
      <trkpt lat="43.8967" lon="3.49315">
        <ele>413</ele>
        <time>2011-10-02T15:21:41Z</time>
      </trkpt>
      <trkpt lat="43.89658" lon="3.49291">
        <ele>415</ele>
        <time>2011-10-02T15:22:00Z</time>
      </trkpt>
      <trkpt lat="43.89655" lon="3.49293">
        <ele>416</ele>
        <time>2011-10-02T15:22:07Z</time>
      </trkpt>
      <trkpt lat="43.89656" lon="3.49299">
        <ele>417</ele>
        <time>2011-10-02T15:22:13Z</time>
      </trkpt>
      <trkpt lat="43.8967" lon="3.49345">
        <ele>422</ele>
        <time>2011-10-02T15:22:49Z</time>
      </trkpt>
      <trkpt lat="43.89671" lon="3.49372">
        <ele>425</ele>
        <time>2011-10-02T15:23:10Z</time>
      </trkpt>
      <trkpt lat="43.89667" lon="3.49385">
        <ele>427</ele>
        <time>2011-10-02T15:23:20Z</time>
      </trkpt>
      <trkpt lat="43.89667" lon="3.4939">
        <ele>427</ele>
        <time>2011-10-02T15:23:28Z</time>
      </trkpt>
      <trkpt lat="43.89664" lon="3.49394">
        <ele>432</ele>
        <time>2011-10-02T15:24:31Z</time>
      </trkpt>
      <trkpt lat="43.89659" lon="3.49409">
        <ele>432</ele>
        <time>2011-10-02T15:24:46Z</time>
      </trkpt>
      <trkpt lat="43.89659" lon="3.49422">
        <ele>434</ele>
        <time>2011-10-02T15:25:16Z</time>
      </trkpt>
      <trkpt lat="43.8966" lon="3.49459">
        <ele>437</ele>
        <time>2011-10-02T15:25:49Z</time>
      </trkpt>
      <trkpt lat="43.89645" lon="3.49512">
        <ele>437</ele>
        <time>2011-10-02T15:26:24Z</time>
      </trkpt>
      <trkpt lat="43.89625" lon="3.49561">
        <ele>436</ele>
        <time>2011-10-02T15:26:56Z</time>
      </trkpt>
      <trkpt lat="43.89598" lon="3.49592">
        <ele>435</ele>
        <time>2011-10-02T15:27:29Z</time>
      </trkpt>
      <trkpt lat="43.89564" lon="3.49624">
        <ele>433</ele>
        <time>2011-10-02T15:28:02Z</time>
      </trkpt>
      <trkpt lat="43.89555" lon="3.49651">
        <ele>432</ele>
        <time>2011-10-02T15:28:22Z</time>
      </trkpt>
      <trkpt lat="43.89554" lon="3.49695">
        <ele>430</ele>
        <time>2011-10-02T15:28:52Z</time>
      </trkpt>
      <trkpt lat="43.89538" lon="3.49746">
        <ele>428</ele>
        <time>2011-10-02T15:29:25Z</time>
      </trkpt>
      <trkpt lat="43.8951" lon="3.49789">
        <ele>426</ele>
        <time>2011-10-02T15:29:59Z</time>
      </trkpt>
      <trkpt lat="43.89478" lon="3.4981">
        <ele>424</ele>
        <time>2011-10-02T15:30:30Z</time>
      </trkpt>
      <trkpt lat="43.89443" lon="3.49812">
        <ele>421</ele>
        <time>2011-10-02T15:31:00Z</time>
      </trkpt>
      <trkpt lat="43.89403" lon="3.49798">
        <ele>419</ele>
        <time>2011-10-02T15:31:32Z</time>
      </trkpt>
      <trkpt lat="43.89373" lon="3.49766">
        <ele>419</ele>
        <time>2011-10-02T15:32:06Z</time>
      </trkpt>
      <trkpt lat="43.89343" lon="3.4973">
        <ele>418</ele>
        <time>2011-10-02T15:32:39Z</time>
      </trkpt>
      <trkpt lat="43.89324" lon="3.49683">
        <ele>417</ele>
        <time>2011-10-02T15:33:12Z</time>
      </trkpt>
      <trkpt lat="43.8932" lon="3.49633">
        <ele>414</ele>
        <time>2011-10-02T15:33:46Z</time>
      </trkpt>
      <trkpt lat="43.89324" lon="3.4958">
        <ele>411</ele>
        <time>2011-10-02T15:34:19Z</time>
      </trkpt>
      <trkpt lat="43.89321" lon="3.49575">
        <ele>410</ele>
        <time>2011-10-02T15:34:51Z</time>
      </trkpt>
      <trkpt lat="43.89323" lon="3.49568">
        <ele>410</ele>
        <time>2011-10-02T15:34:54Z</time>
      </trkpt>
      <trkpt lat="43.89321" lon="3.49555">
        <ele>410</ele>
        <time>2011-10-02T15:35:01Z</time>
      </trkpt>
      <trkpt lat="43.89295" lon="3.49522">
        <ele>409</ele>
        <time>2011-10-02T15:35:34Z</time>
      </trkpt>
      <trkpt lat="43.89261" lon="3.4948">
        <ele>408</ele>
        <time>2011-10-02T15:36:08Z</time>
      </trkpt>
      <trkpt lat="43.89247" lon="3.49432">
        <ele>407</ele>
        <time>2011-10-02T15:36:39Z</time>
      </trkpt>
      <trkpt lat="43.89238" lon="3.49422">
        <ele>407</ele>
        <time>2011-10-02T15:36:48Z</time>
      </trkpt>
      <trkpt lat="43.89228" lon="3.49423">
        <ele>406</ele>
        <time>2011-10-02T15:36:57Z</time>
      </trkpt>
      <trkpt lat="43.89216" lon="3.49442">
        <ele>406</ele>
        <time>2011-10-02T15:37:12Z</time>
      </trkpt>
      <trkpt lat="43.89214" lon="3.49457">
        <ele>406</ele>
        <time>2011-10-02T15:37:22Z</time>
      </trkpt>
      <trkpt lat="43.89198" lon="3.49486">
        <ele>405</ele>
        <time>2011-10-02T15:37:49Z</time>
      </trkpt>
      <trkpt lat="43.89174" lon="3.49518">
        <ele>402</ele>
        <time>2011-10-02T15:38:20Z</time>
      </trkpt>
      <trkpt lat="43.8914" lon="3.49544">
        <ele>401</ele>
        <time>2011-10-02T15:38:54Z</time>
      </trkpt>
      <trkpt lat="43.89124" lon="3.49572">
        <ele>400</ele>
        <time>2011-10-02T15:39:15Z</time>
      </trkpt>
      <trkpt lat="43.89123" lon="3.4958">
        <ele>400</ele>
        <time>2011-10-02T15:39:20Z</time>
      </trkpt>
      <trkpt lat="43.89124" lon="3.49586">
        <ele>400</ele>
        <time>2011-10-02T15:39:25Z</time>
      </trkpt>
      <trkpt lat="43.89137" lon="3.49598">
        <ele>400</ele>
        <time>2011-10-02T15:39:40Z</time>
      </trkpt>
      <trkpt lat="43.89175" lon="3.4961">
        <ele>396</ele>
        <time>2011-10-02T15:40:13Z</time>
      </trkpt>
      <trkpt lat="43.89208" lon="3.49636">
        <ele>393</ele>
        <time>2011-10-02T15:40:46Z</time>
      </trkpt>
      <trkpt lat="43.89231" lon="3.49662">
        <ele>391</ele>
        <time>2011-10-02T15:41:16Z</time>
      </trkpt>
      <trkpt lat="43.8925" lon="3.497">
        <ele>390</ele>
        <time>2011-10-02T15:41:47Z</time>
      </trkpt>
      <trkpt lat="43.89264" lon="3.49753">
        <ele>389</ele>
        <time>2011-10-02T15:42:22Z</time>
      </trkpt>
      <trkpt lat="43.89269" lon="3.49772">
        <ele>389</ele>
        <time>2011-10-02T15:42:37Z</time>
      </trkpt>
      <trkpt lat="43.89268" lon="3.49829">
        <ele>388</ele>
        <time>2011-10-02T15:43:13Z</time>
      </trkpt>
      <trkpt lat="43.89261" lon="3.49887">
        <ele>386</ele>
        <time>2011-10-02T15:43:49Z</time>
      </trkpt>
      <trkpt lat="43.89256" lon="3.49936">
        <ele>385</ele>
        <time>2011-10-02T15:44:22Z</time>
      </trkpt>
      <trkpt lat="43.89256" lon="3.49943">
        <ele>384</ele>
        <time>2011-10-02T15:44:27Z</time>
      </trkpt>
      <trkpt lat="43.89245" lon="3.49984">
        <ele>383</ele>
        <time>2011-10-02T15:45:00Z</time>
      </trkpt>
      <trkpt lat="43.89232" lon="3.50029">
        <ele>382</ele>
        <time>2011-10-02T15:45:28Z</time>
      </trkpt>
      <trkpt lat="43.89226" lon="3.50035">
        <ele>382</ele>
        <time>2011-10-02T15:45:35Z</time>
      </trkpt>
      <trkpt lat="43.89211" lon="3.50078">
        <ele>381</ele>
        <time>2011-10-02T15:46:07Z</time>
      </trkpt>
      <trkpt lat="43.89206" lon="3.50087">
        <ele>380</ele>
        <time>2011-10-02T15:46:30Z</time>
      </trkpt>
      <trkpt lat="43.89204" lon="3.50101">
        <ele>380</ele>
        <time>2011-10-02T15:46:39Z</time>
      </trkpt>
      <trkpt lat="43.89191" lon="3.50159">
        <ele>374</ele>
        <time>2011-10-02T15:47:10Z</time>
      </trkpt>
      <trkpt lat="43.89182" lon="3.50211">
        <ele>371</ele>
        <time>2011-10-02T15:47:44Z</time>
      </trkpt>
      <trkpt lat="43.89182" lon="3.50225">
        <ele>371</ele>
        <time>2011-10-02T15:47:53Z</time>
      </trkpt>
      <trkpt lat="43.89192" lon="3.50249">
        <ele>369</ele>
        <time>2011-10-02T15:48:13Z</time>
      </trkpt>
      <trkpt lat="43.89227" lon="3.50284">
        <ele>367</ele>
        <time>2011-10-02T15:48:47Z</time>
      </trkpt>
      <trkpt lat="43.89218" lon="3.50288">
        <ele>366</ele>
        <time>2011-10-02T15:49:03Z</time>
      </trkpt>
      <trkpt lat="43.89225" lon="3.50297">
        <ele>362</ele>
        <time>2011-10-02T15:49:21Z</time>
      </trkpt>
      <trkpt lat="43.89231" lon="3.50296">
        <ele>362</ele>
        <time>2011-10-02T15:49:25Z</time>
      </trkpt>
      <trkpt lat="43.89254" lon="3.50276">
        <ele>358</ele>
        <time>2011-10-02T15:49:49Z</time>
      </trkpt>
      <trkpt lat="43.89265" lon="3.50262">
        <ele>358</ele>
        <time>2011-10-02T15:50:10Z</time>
      </trkpt>
      <trkpt lat="43.89283" lon="3.50239">
        <ele>358</ele>
        <time>2011-10-02T15:50:34Z</time>
      </trkpt>
      <trkpt lat="43.89296" lon="3.50243">
        <ele>358</ele>
        <time>2011-10-02T15:50:41Z</time>
      </trkpt>
      <trkpt lat="43.89324" lon="3.5025">
        <ele>359</ele>
        <time>2011-10-02T15:51:01Z</time>
      </trkpt>
      <trkpt lat="43.89332" lon="3.50247">
        <ele>359</ele>
        <time>2011-10-02T15:51:13Z</time>
      </trkpt>
      <trkpt lat="43.89335" lon="3.50243">
        <ele>356</ele>
        <time>2011-10-02T15:51:51Z</time>
      </trkpt>
      <trkpt lat="43.89357" lon="3.50234">
        <ele>349</ele>
        <time>2011-10-02T15:52:21Z</time>
      </trkpt>
      <trkpt lat="43.89389" lon="3.50244">
        <ele>344</ele>
        <time>2011-10-02T15:52:56Z</time>
      </trkpt>
      <trkpt lat="43.8942" lon="3.50271">
        <ele>341</ele>
        <time>2011-10-02T15:53:29Z</time>
      </trkpt>
      <trkpt lat="43.89449" lon="3.50299">
        <ele>340</ele>
        <time>2011-10-02T15:54:02Z</time>
      </trkpt>
      <trkpt lat="43.89484" lon="3.50324">
        <ele>341</ele>
        <time>2011-10-02T15:54:34Z</time>
      </trkpt>
      <trkpt lat="43.89489" lon="3.50328">
        <ele>341</ele>
        <time>2011-10-02T15:54:38Z</time>
      </trkpt>
      <trkpt lat="43.89507" lon="3.50377">
        <ele>343</ele>
        <time>2011-10-02T15:55:13Z</time>
      </trkpt>
      <trkpt lat="43.89518" lon="3.5043">
        <ele>344</ele>
        <time>2011-10-02T15:55:47Z</time>
      </trkpt>
      <trkpt lat="43.8953" lon="3.50484">
        <ele>345</ele>
        <time>2011-10-02T15:56:21Z</time>
      </trkpt>
      <trkpt lat="43.89554" lon="3.50525">
        <ele>348</ele>
        <time>2011-10-02T15:56:52Z</time>
      </trkpt>
      <trkpt lat="43.89561" lon="3.50553">
        <ele>352</ele>
        <time>2011-10-02T15:57:08Z</time>
      </trkpt>
      <trkpt lat="43.8956" lon="3.50616">
        <ele>357</ele>
        <time>2011-10-02T15:57:42Z</time>
      </trkpt>
      <trkpt lat="43.8956" lon="3.50622">
        <ele>358</ele>
        <time>2011-10-02T15:57:46Z</time>
      </trkpt>
      <trkpt lat="43.89546" lon="3.50656">
        <ele>359</ele>
        <time>2011-10-02T15:58:05Z</time>
      </trkpt>
      <trkpt lat="43.8952" lon="3.50701">
        <ele>362</ele>
        <time>2011-10-02T15:58:36Z</time>
      </trkpt>
      <trkpt lat="43.89503" lon="3.50759">
        <ele>363</ele>
        <time>2011-10-02T15:59:07Z</time>
      </trkpt>
      <trkpt lat="43.89492" lon="3.50816">
        <ele>362</ele>
        <time>2011-10-02T15:59:41Z</time>
      </trkpt>
      <trkpt lat="43.89496" lon="3.50874">
        <ele>360</ele>
        <time>2011-10-02T16:00:15Z</time>
      </trkpt>
      <trkpt lat="43.89492" lon="3.50903">
        <ele>359</ele>
        <time>2011-10-02T16:00:31Z</time>
      </trkpt>
      <trkpt lat="43.89494" lon="3.50911">
        <ele>358</ele>
        <time>2011-10-02T16:00:47Z</time>
      </trkpt>
      <trkpt lat="43.89492" lon="3.50924">
        <ele>357</ele>
        <time>2011-10-02T16:00:56Z</time>
      </trkpt>
      <trkpt lat="43.89483" lon="3.50933">
        <ele>356</ele>
        <time>2011-10-02T16:01:04Z</time>
      </trkpt>
      <trkpt lat="43.89472" lon="3.50931">
        <ele>355</ele>
        <time>2011-10-02T16:01:12Z</time>
      </trkpt>
      <trkpt lat="43.89463" lon="3.50926">
        <ele>355</ele>
        <time>2011-10-02T16:01:20Z</time>
      </trkpt>
      <trkpt lat="43.89462" lon="3.50933">
        <ele>354</ele>
        <time>2011-10-02T16:01:27Z</time>
      </trkpt>
      <trkpt lat="43.89464" lon="3.50946">
        <ele>353</ele>
        <time>2011-10-02T16:01:35Z</time>
      </trkpt>
      <trkpt lat="43.89466" lon="3.50959">
        <ele>351</ele>
        <time>2011-10-02T16:01:59Z</time>
      </trkpt>
      <trkpt lat="43.8947" lon="3.50971">
        <ele>350</ele>
        <time>2011-10-02T16:02:09Z</time>
      </trkpt>
      <trkpt lat="43.89469" lon="3.50977">
        <ele>350</ele>
        <time>2011-10-02T16:02:15Z</time>
      </trkpt>
      <trkpt lat="43.89478" lon="3.50997">
        <ele>349</ele>
        <time>2011-10-02T16:02:28Z</time>
      </trkpt>
      <trkpt lat="43.89479" lon="3.51046">
        <ele>347</ele>
        <time>2011-10-02T16:02:55Z</time>
      </trkpt>
      <trkpt lat="43.89476" lon="3.51052">
        <ele>347</ele>
        <time>2011-10-02T16:02:59Z</time>
      </trkpt>
      <trkpt lat="43.89463" lon="3.51072">
        <ele>346</ele>
        <time>2011-10-02T16:03:15Z</time>
      </trkpt>
      <trkpt lat="43.89462" lon="3.51081">
        <ele>345</ele>
        <time>2011-10-02T16:03:20Z</time>
      </trkpt>
      <trkpt lat="43.89465" lon="3.51085">
        <ele>344</ele>
        <time>2011-10-02T16:03:33Z</time>
      </trkpt>
      <trkpt lat="43.89464" lon="3.51093">
        <ele>343</ele>
        <time>2011-10-02T16:03:37Z</time>
      </trkpt>
      <trkpt lat="43.89459" lon="3.51143">
        <ele>338</ele>
        <time>2011-10-02T16:04:01Z</time>
      </trkpt>
      <trkpt lat="43.89449" lon="3.51142">
        <ele>336</ele>
        <time>2011-10-02T16:04:10Z</time>
      </trkpt>
      <trkpt lat="43.8942" lon="3.51099">
        <ele>332</ele>
        <time>2011-10-02T16:04:40Z</time>
      </trkpt>
      <trkpt lat="43.89404" lon="3.51053">
        <ele>329</ele>
        <time>2011-10-02T16:05:10Z</time>
      </trkpt>
      <trkpt lat="43.89404" lon="3.51039">
        <ele>328</ele>
        <time>2011-10-02T16:05:19Z</time>
      </trkpt>
      <trkpt lat="43.89389" lon="3.51017">
        <ele>327</ele>
        <time>2011-10-02T16:05:32Z</time>
      </trkpt>
      <trkpt lat="43.89385" lon="3.51019">
        <ele>327</ele>
        <time>2011-10-02T16:06:00Z</time>
      </trkpt>
      <trkpt lat="43.8938" lon="3.51022">
        <ele>327</ele>
        <time>2011-10-02T16:06:05Z</time>
      </trkpt>
      <trkpt lat="43.8938" lon="3.51022">
        <ele>326</ele>
        <time>2011-10-02T16:07:36Z</time>
      </trkpt>
    </trkseg>
  </trk>
</gpx>